<?xml version="1.0" encoding="UTF-8" standalone="no" ?>
<gpx xmlns="http://www.topografix.com/GPX/1/1" xmlns:xsi="http://www.w3.org/2001/XMLSchema-instance" xsi:schemaLocation="http://www.topografix.com/GPX/1/1 http://www.topografix.com/GPX/1/1/gpx.xsd" version="1.1" creator="VisuGPX - https://www.visugpx.com">
  <metadata>
    <name>Colline de Sion</name>
  </metadata>
  <trk>
    <name><![CDATA[La Colline de Sion-18209177]]></name>
    <trkseg>
      <trkpt lat="48.65339" lon="5.9942">
        <ele>219</ele>
        <time>2024-01-18T11:07:43Z</time>
      </trkpt>
      <trkpt lat="48.65328" lon="5.99386">
        <ele>219</ele>
        <time>2024-01-18T11:07:47Z</time>
      </trkpt>
      <trkpt lat="48.65294" lon="5.99242">
        <ele>220</ele>
        <time>2024-01-18T11:08:05Z</time>
      </trkpt>
      <trkpt lat="48.65273" lon="5.99105">
        <ele>218</ele>
        <time>2024-01-18T11:08:22Z</time>
      </trkpt>
      <trkpt lat="48.65264" lon="5.99031">
        <ele>217</ele>
        <time>2024-01-18T11:08:31Z</time>
      </trkpt>
      <trkpt lat="48.65258" lon="5.98914">
        <ele>217</ele>
        <time>2024-01-18T11:08:45Z</time>
      </trkpt>
      <trkpt lat="48.6526" lon="5.98761">
        <ele>215</ele>
        <time>2024-01-18T11:09:03Z</time>
      </trkpt>
      <trkpt lat="48.65254" lon="5.98746">
        <ele>214</ele>
        <time>2024-01-18T11:09:05Z</time>
      </trkpt>
      <trkpt lat="48.65252" lon="5.98726">
        <ele>214</ele>
        <time>2024-01-18T11:09:07Z</time>
      </trkpt>
      <trkpt lat="48.65259" lon="5.98613">
        <ele>217</ele>
        <time>2024-01-18T11:09:20Z</time>
      </trkpt>
      <trkpt lat="48.65268" lon="5.98261">
        <ele>222</ele>
        <time>2024-01-18T11:10:02Z</time>
      </trkpt>
      <trkpt lat="48.65261" lon="5.98092">
        <ele>222</ele>
        <time>2024-01-18T11:10:22Z</time>
      </trkpt>
      <trkpt lat="48.65252" lon="5.98006">
        <ele>220</ele>
        <time>2024-01-18T11:10:32Z</time>
      </trkpt>
      <trkpt lat="48.65218" lon="5.97814">
        <ele>219</ele>
        <time>2024-01-18T11:10:55Z</time>
      </trkpt>
      <trkpt lat="48.65209" lon="5.97796">
        <ele>217</ele>
        <time>2024-01-18T11:10:58Z</time>
      </trkpt>
      <trkpt lat="48.65203" lon="5.97791">
        <ele>216</ele>
        <time>2024-01-18T11:10:59Z</time>
      </trkpt>
      <trkpt lat="48.65195" lon="5.97789">
        <ele>215</ele>
        <time>2024-01-18T11:11:01Z</time>
      </trkpt>
      <trkpt lat="48.65096" lon="5.97828">
        <ele>211</ele>
        <time>2024-01-18T11:11:19Z</time>
      </trkpt>
      <trkpt lat="48.65085" lon="5.97828">
        <ele>211</ele>
        <time>2024-01-18T11:11:21Z</time>
      </trkpt>
      <trkpt lat="48.65076" lon="5.97822">
        <ele>211</ele>
        <time>2024-01-18T11:11:22Z</time>
      </trkpt>
      <trkpt lat="48.6507" lon="5.97814">
        <ele>211</ele>
        <time>2024-01-18T11:11:24Z</time>
      </trkpt>
      <trkpt lat="48.6505" lon="5.97669">
        <ele>210</ele>
        <time>2024-01-18T11:11:41Z</time>
      </trkpt>
      <trkpt lat="48.64981" lon="5.97407">
        <ele>210</ele>
        <time>2024-01-18T11:12:14Z</time>
      </trkpt>
      <trkpt lat="48.64977" lon="5.97395">
        <ele>210</ele>
        <time>2024-01-18T11:12:16Z</time>
      </trkpt>
      <trkpt lat="48.64968" lon="5.97384">
        <ele>210</ele>
        <time>2024-01-18T11:12:18Z</time>
      </trkpt>
      <trkpt lat="48.64959" lon="5.97381">
        <ele>210</ele>
        <time>2024-01-18T11:12:20Z</time>
      </trkpt>
      <trkpt lat="48.64951" lon="5.97383">
        <ele>211</ele>
        <time>2024-01-18T11:12:21Z</time>
      </trkpt>
      <trkpt lat="48.64912" lon="5.97406">
        <ele>213</ele>
        <time>2024-01-18T11:12:29Z</time>
      </trkpt>
      <trkpt lat="48.64971" lon="5.9764">
        <ele>214</ele>
        <time>2024-01-18T11:12:58Z</time>
      </trkpt>
      <trkpt lat="48.65043" lon="5.97982">
        <ele>216</ele>
        <time>2024-01-18T11:13:40Z</time>
      </trkpt>
      <trkpt lat="48.65049" lon="5.98041">
        <ele>215</ele>
        <time>2024-01-18T11:13:47Z</time>
      </trkpt>
      <trkpt lat="48.65053" lon="5.98358">
        <ele>225</ele>
        <time>2024-01-18T11:14:25Z</time>
      </trkpt>
      <trkpt lat="48.65064" lon="5.9879">
        <ele>220</ele>
        <time>2024-01-18T11:15:15Z</time>
      </trkpt>
      <trkpt lat="48.6508" lon="5.98902">
        <ele>223</ele>
        <time>2024-01-18T11:15:29Z</time>
      </trkpt>
      <trkpt lat="48.65112" lon="5.99265">
        <ele>226</ele>
        <time>2024-01-18T11:16:12Z</time>
      </trkpt>
      <trkpt lat="48.65134" lon="5.99456">
        <ele>225</ele>
        <time>2024-01-18T11:16:35Z</time>
      </trkpt>
      <trkpt lat="48.65153" lon="5.99523">
        <ele>222</ele>
        <time>2024-01-18T11:16:43Z</time>
      </trkpt>
      <trkpt lat="48.65179" lon="5.9965">
        <ele>222</ele>
        <time>2024-01-18T11:16:59Z</time>
      </trkpt>
      <trkpt lat="48.65185" lon="5.99694">
        <ele>223</ele>
        <time>2024-01-18T11:17:04Z</time>
      </trkpt>
      <trkpt lat="48.65187" lon="5.99819">
        <ele>225</ele>
        <time>2024-01-18T11:17:19Z</time>
      </trkpt>
      <trkpt lat="48.6519" lon="5.9984">
        <ele>225</ele>
        <time>2024-01-18T11:17:21Z</time>
      </trkpt>
      <trkpt lat="48.65196" lon="5.99863">
        <ele>225</ele>
        <time>2024-01-18T11:17:24Z</time>
      </trkpt>
      <trkpt lat="48.65205" lon="5.99884">
        <ele>223</ele>
        <time>2024-01-18T11:17:27Z</time>
      </trkpt>
      <trkpt lat="48.65354" lon="6.00055">
        <ele>216</ele>
        <time>2024-01-18T11:18:01Z</time>
      </trkpt>
      <trkpt lat="48.65375" lon="6.00076">
        <ele>215</ele>
        <time>2024-01-18T11:18:05Z</time>
      </trkpt>
      <trkpt lat="48.65429" lon="6.00113">
        <ele>213</ele>
        <time>2024-01-18T11:18:16Z</time>
      </trkpt>
      <trkpt lat="48.65568" lon="6.00177">
        <ele>212</ele>
        <time>2024-01-18T11:18:41Z</time>
      </trkpt>
      <trkpt lat="48.65642" lon="6.0022">
        <ele>212</ele>
        <time>2024-01-18T11:18:56Z</time>
      </trkpt>
      <trkpt lat="48.65685" lon="6.00251">
        <ele>213</ele>
        <time>2024-01-18T11:19:04Z</time>
      </trkpt>
      <trkpt lat="48.65757" lon="6.00321">
        <ele>215</ele>
        <time>2024-01-18T11:19:19Z</time>
      </trkpt>
      <trkpt lat="48.65827" lon="6.00402">
        <ele>213</ele>
        <time>2024-01-18T11:19:35Z</time>
      </trkpt>
      <trkpt lat="48.65893" lon="6.00489">
        <ele>212</ele>
        <time>2024-01-18T11:19:50Z</time>
      </trkpt>
      <trkpt lat="48.65932" lon="6.00547">
        <ele>212</ele>
        <time>2024-01-18T11:20:00Z</time>
      </trkpt>
      <trkpt lat="48.6599" lon="6.00655">
        <ele>210</ele>
        <time>2024-01-18T11:20:17Z</time>
      </trkpt>
      <trkpt lat="48.66026" lon="6.00728">
        <ele>213</ele>
        <time>2024-01-18T11:20:27Z</time>
      </trkpt>
      <trkpt lat="48.66062" lon="6.00817">
        <ele>214</ele>
        <time>2024-01-18T11:20:40Z</time>
      </trkpt>
      <trkpt lat="48.66093" lon="6.00909">
        <ele>214</ele>
        <time>2024-01-18T11:20:52Z</time>
      </trkpt>
      <trkpt lat="48.66113" lon="6.00978">
        <ele>214</ele>
        <time>2024-01-18T11:21:01Z</time>
      </trkpt>
      <trkpt lat="48.66134" lon="6.01069">
        <ele>214</ele>
        <time>2024-01-18T11:21:12Z</time>
      </trkpt>
      <trkpt lat="48.6615" lon="6.01152">
        <ele>214</ele>
        <time>2024-01-18T11:21:22Z</time>
      </trkpt>
      <trkpt lat="48.66172" lon="6.01302">
        <ele>213</ele>
        <time>2024-01-18T11:21:40Z</time>
      </trkpt>
      <trkpt lat="48.66175" lon="6.0135">
        <ele>214</ele>
        <time>2024-01-18T11:21:46Z</time>
      </trkpt>
      <trkpt lat="48.66174" lon="6.01419">
        <ele>213</ele>
        <time>2024-01-18T11:21:54Z</time>
      </trkpt>
      <trkpt lat="48.66162" lon="6.01605">
        <ele>214</ele>
        <time>2024-01-18T11:22:16Z</time>
      </trkpt>
      <trkpt lat="48.6614" lon="6.01734">
        <ele>215</ele>
        <time>2024-01-18T11:22:31Z</time>
      </trkpt>
      <trkpt lat="48.66125" lon="6.01801">
        <ele>215</ele>
        <time>2024-01-18T11:22:40Z</time>
      </trkpt>
      <trkpt lat="48.66102" lon="6.01865">
        <ele>215</ele>
        <time>2024-01-18T11:22:48Z</time>
      </trkpt>
      <trkpt lat="48.66078" lon="6.01927">
        <ele>215</ele>
        <time>2024-01-18T11:22:57Z</time>
      </trkpt>
      <trkpt lat="48.66035" lon="6.02019">
        <ele>215</ele>
        <time>2024-01-18T11:23:10Z</time>
      </trkpt>
      <trkpt lat="48.65982" lon="6.02109">
        <ele>216</ele>
        <time>2024-01-18T11:23:24Z</time>
      </trkpt>
      <trkpt lat="48.65867" lon="6.02231">
        <ele>232</ele>
        <time>2024-01-18T11:23:49Z</time>
      </trkpt>
      <trkpt lat="48.65845" lon="6.02258">
        <ele>234</ele>
        <time>2024-01-18T11:23:54Z</time>
      </trkpt>
      <trkpt lat="48.65795" lon="6.02346">
        <ele>238</ele>
        <time>2024-01-18T11:24:08Z</time>
      </trkpt>
      <trkpt lat="48.65696" lon="6.02572">
        <ele>242</ele>
        <time>2024-01-18T11:24:40Z</time>
      </trkpt>
      <trkpt lat="48.65547" lon="6.02902">
        <ele>230</ele>
        <time>2024-01-18T11:25:27Z</time>
      </trkpt>
      <trkpt lat="48.65516" lon="6.02966">
        <ele>230</ele>
        <time>2024-01-18T11:25:36Z</time>
      </trkpt>
      <trkpt lat="48.65436" lon="6.03108">
        <ele>225</ele>
        <time>2024-01-18T11:25:58Z</time>
      </trkpt>
      <trkpt lat="48.65411" lon="6.03161">
        <ele>218</ele>
        <time>2024-01-18T11:26:06Z</time>
      </trkpt>
      <trkpt lat="48.65369" lon="6.03226">
        <ele>218</ele>
        <time>2024-01-18T11:26:16Z</time>
      </trkpt>
      <trkpt lat="48.65317" lon="6.03321">
        <ele>214</ele>
        <time>2024-01-18T11:26:31Z</time>
      </trkpt>
      <trkpt lat="48.6526" lon="6.03469">
        <ele>213</ele>
        <time>2024-01-18T11:26:51Z</time>
      </trkpt>
      <trkpt lat="48.65236" lon="6.03523">
        <ele>213</ele>
        <time>2024-01-18T11:26:59Z</time>
      </trkpt>
      <trkpt lat="48.6519" lon="6.03606">
        <ele>213</ele>
        <time>2024-01-18T11:27:11Z</time>
      </trkpt>
      <trkpt lat="48.65158" lon="6.03653">
        <ele>213</ele>
        <time>2024-01-18T11:27:19Z</time>
      </trkpt>
      <trkpt lat="48.65103" lon="6.03722">
        <ele>213</ele>
        <time>2024-01-18T11:27:32Z</time>
      </trkpt>
      <trkpt lat="48.65027" lon="6.03794">
        <ele>212</ele>
        <time>2024-01-18T11:27:48Z</time>
      </trkpt>
      <trkpt lat="48.64875" lon="6.03924">
        <ele>212</ele>
        <time>2024-01-18T11:28:19Z</time>
      </trkpt>
      <trkpt lat="48.64837" lon="6.03954">
        <ele>213</ele>
        <time>2024-01-18T11:28:27Z</time>
      </trkpt>
      <trkpt lat="48.64799" lon="6.03979">
        <ele>214</ele>
        <time>2024-01-18T11:28:34Z</time>
      </trkpt>
      <trkpt lat="48.64705" lon="6.04024">
        <ele>214</ele>
        <time>2024-01-18T11:28:52Z</time>
      </trkpt>
      <trkpt lat="48.64612" lon="6.04054">
        <ele>214</ele>
        <time>2024-01-18T11:29:08Z</time>
      </trkpt>
      <trkpt lat="48.64571" lon="6.04063">
        <ele>214</ele>
        <time>2024-01-18T11:29:16Z</time>
      </trkpt>
      <trkpt lat="48.64527" lon="6.04062">
        <ele>215</ele>
        <time>2024-01-18T11:29:24Z</time>
      </trkpt>
      <trkpt lat="48.64373" lon="6.04027">
        <ele>214</ele>
        <time>2024-01-18T11:29:51Z</time>
      </trkpt>
      <trkpt lat="48.64216" lon="6.04005">
        <ele>215</ele>
        <time>2024-01-18T11:30:19Z</time>
      </trkpt>
      <trkpt lat="48.64078" lon="6.03973">
        <ele>218</ele>
        <time>2024-01-18T11:30:44Z</time>
      </trkpt>
      <trkpt lat="48.64011" lon="6.03965">
        <ele>219</ele>
        <time>2024-01-18T11:30:56Z</time>
      </trkpt>
      <trkpt lat="48.63943" lon="6.03966">
        <ele>217</ele>
        <time>2024-01-18T11:31:08Z</time>
      </trkpt>
      <trkpt lat="48.63783" lon="6.0399">
        <ele>216</ele>
        <time>2024-01-18T11:31:37Z</time>
      </trkpt>
      <trkpt lat="48.63714" lon="6.04007">
        <ele>216</ele>
        <time>2024-01-18T11:31:49Z</time>
      </trkpt>
      <trkpt lat="48.63661" lon="6.04042">
        <ele>214</ele>
        <time>2024-01-18T11:32:00Z</time>
      </trkpt>
      <trkpt lat="48.63632" lon="6.04071">
        <ele>213</ele>
        <time>2024-01-18T11:32:06Z</time>
      </trkpt>
      <trkpt lat="48.63545" lon="6.04171">
        <ele>214</ele>
        <time>2024-01-18T11:32:25Z</time>
      </trkpt>
      <trkpt lat="48.63538" lon="6.04172">
        <ele>214</ele>
        <time>2024-01-18T11:32:27Z</time>
      </trkpt>
      <trkpt lat="48.63531" lon="6.04186">
        <ele>214</ele>
        <time>2024-01-18T11:32:29Z</time>
      </trkpt>
      <trkpt lat="48.63452" lon="6.04277">
        <ele>214</ele>
        <time>2024-01-18T11:32:46Z</time>
      </trkpt>
      <trkpt lat="48.63441" lon="6.04287">
        <ele>215</ele>
        <time>2024-01-18T11:32:49Z</time>
      </trkpt>
      <trkpt lat="48.63411" lon="6.04303">
        <ele>215</ele>
        <time>2024-01-18T11:32:54Z</time>
      </trkpt>
      <trkpt lat="48.63402" lon="6.04325">
        <ele>215</ele>
        <time>2024-01-18T11:32:57Z</time>
      </trkpt>
      <trkpt lat="48.63388" lon="6.04345">
        <ele>215</ele>
        <time>2024-01-18T11:33:01Z</time>
      </trkpt>
      <trkpt lat="48.6332" lon="6.04415">
        <ele>213</ele>
        <time>2024-01-18T11:33:15Z</time>
      </trkpt>
      <trkpt lat="48.63242" lon="6.04485">
        <ele>213</ele>
        <time>2024-01-18T11:33:31Z</time>
      </trkpt>
      <trkpt lat="48.63229" lon="6.04489">
        <ele>213</ele>
        <time>2024-01-18T11:33:34Z</time>
      </trkpt>
      <trkpt lat="48.63221" lon="6.04495">
        <ele>213</ele>
        <time>2024-01-18T11:33:35Z</time>
      </trkpt>
      <trkpt lat="48.63196" lon="6.045">
        <ele>214</ele>
        <time>2024-01-18T11:33:40Z</time>
      </trkpt>
      <trkpt lat="48.63162" lon="6.04513">
        <ele>215</ele>
        <time>2024-01-18T11:33:46Z</time>
      </trkpt>
      <trkpt lat="48.63088" lon="6.04524">
        <ele>215</ele>
        <time>2024-01-18T11:33:59Z</time>
      </trkpt>
      <trkpt lat="48.63069" lon="6.04531">
        <ele>215</ele>
        <time>2024-01-18T11:34:03Z</time>
      </trkpt>
      <trkpt lat="48.63045" lon="6.04534">
        <ele>217</ele>
        <time>2024-01-18T11:34:07Z</time>
      </trkpt>
      <trkpt lat="48.6299" lon="6.04481">
        <ele>218</ele>
        <time>2024-01-18T11:34:19Z</time>
      </trkpt>
      <trkpt lat="48.62956" lon="6.04463">
        <ele>219</ele>
        <time>2024-01-18T11:34:25Z</time>
      </trkpt>
      <trkpt lat="48.62909" lon="6.0447">
        <ele>220</ele>
        <time>2024-01-18T11:34:34Z</time>
      </trkpt>
      <trkpt lat="48.62831" lon="6.04516">
        <ele>222</ele>
        <time>2024-01-18T11:34:48Z</time>
      </trkpt>
      <trkpt lat="48.62774" lon="6.04555">
        <ele>223</ele>
        <time>2024-01-18T11:35:00Z</time>
      </trkpt>
      <trkpt lat="48.62753" lon="6.04574">
        <ele>222</ele>
        <time>2024-01-18T11:35:04Z</time>
      </trkpt>
      <trkpt lat="48.62739" lon="6.04598">
        <ele>221</ele>
        <time>2024-01-18T11:35:08Z</time>
      </trkpt>
      <trkpt lat="48.62728" lon="6.04628">
        <ele>220</ele>
        <time>2024-01-18T11:35:12Z</time>
      </trkpt>
      <trkpt lat="48.62721" lon="6.0464">
        <ele>219</ele>
        <time>2024-01-18T11:35:14Z</time>
      </trkpt>
      <trkpt lat="48.62706" lon="6.04657">
        <ele>218</ele>
        <time>2024-01-18T11:35:17Z</time>
      </trkpt>
      <trkpt lat="48.62628" lon="6.04695">
        <ele>217</ele>
        <time>2024-01-18T11:35:32Z</time>
      </trkpt>
      <trkpt lat="48.62494" lon="6.04746">
        <ele>220</ele>
        <time>2024-01-18T11:35:56Z</time>
      </trkpt>
      <trkpt lat="48.62449" lon="6.04753">
        <ele>218</ele>
        <time>2024-01-18T11:36:04Z</time>
      </trkpt>
      <trkpt lat="48.62373" lon="6.04772">
        <ele>218</ele>
        <time>2024-01-18T11:36:18Z</time>
      </trkpt>
      <trkpt lat="48.6235" lon="6.04783">
        <ele>218</ele>
        <time>2024-01-18T11:36:22Z</time>
      </trkpt>
      <trkpt lat="48.62316" lon="6.04807">
        <ele>217</ele>
        <time>2024-01-18T11:36:29Z</time>
      </trkpt>
      <trkpt lat="48.62284" lon="6.04837">
        <ele>215</ele>
        <time>2024-01-18T11:36:36Z</time>
      </trkpt>
      <trkpt lat="48.62258" lon="6.04875">
        <ele>214</ele>
        <time>2024-01-18T11:36:42Z</time>
      </trkpt>
      <trkpt lat="48.62245" lon="6.04899">
        <ele>214</ele>
        <time>2024-01-18T11:36:46Z</time>
      </trkpt>
      <trkpt lat="48.62234" lon="6.04928">
        <ele>215</ele>
        <time>2024-01-18T11:36:50Z</time>
      </trkpt>
      <trkpt lat="48.62218" lon="6.04997">
        <ele>215</ele>
        <time>2024-01-18T11:36:58Z</time>
      </trkpt>
      <trkpt lat="48.62209" lon="6.0506">
        <ele>215</ele>
        <time>2024-01-18T11:37:06Z</time>
      </trkpt>
      <trkpt lat="48.62195" lon="6.05201">
        <ele>217</ele>
        <time>2024-01-18T11:37:22Z</time>
      </trkpt>
      <trkpt lat="48.62188" lon="6.05201">
        <ele>217</ele>
        <time>2024-01-18T11:37:24Z</time>
      </trkpt>
      <trkpt lat="48.62183" lon="6.05338">
        <ele>216</ele>
        <time>2024-01-18T11:37:40Z</time>
      </trkpt>
      <trkpt lat="48.62175" lon="6.05393">
        <ele>216</ele>
        <time>2024-01-18T11:37:46Z</time>
      </trkpt>
      <trkpt lat="48.62163" lon="6.05436">
        <ele>217</ele>
        <time>2024-01-18T11:37:52Z</time>
      </trkpt>
      <trkpt lat="48.62148" lon="6.0548">
        <ele>217</ele>
        <time>2024-01-18T11:37:58Z</time>
      </trkpt>
      <trkpt lat="48.6213" lon="6.05511">
        <ele>217</ele>
        <time>2024-01-18T11:38:03Z</time>
      </trkpt>
      <trkpt lat="48.62073" lon="6.05589">
        <ele>218</ele>
        <time>2024-01-18T11:38:16Z</time>
      </trkpt>
      <trkpt lat="48.62037" lon="6.05653">
        <ele>218</ele>
        <time>2024-01-18T11:38:26Z</time>
      </trkpt>
      <trkpt lat="48.62021" lon="6.05688">
        <ele>218</ele>
        <time>2024-01-18T11:38:31Z</time>
      </trkpt>
      <trkpt lat="48.62005" lon="6.05732">
        <ele>217</ele>
        <time>2024-01-18T11:38:37Z</time>
      </trkpt>
      <trkpt lat="48.61982" lon="6.05816">
        <ele>217</ele>
        <time>2024-01-18T11:38:48Z</time>
      </trkpt>
      <trkpt lat="48.61953" lon="6.05905">
        <ele>219</ele>
        <time>2024-01-18T11:38:59Z</time>
      </trkpt>
      <trkpt lat="48.61932" lon="6.06001">
        <ele>219</ele>
        <time>2024-01-18T11:39:11Z</time>
      </trkpt>
      <trkpt lat="48.6192" lon="6.06044">
        <ele>218</ele>
        <time>2024-01-18T11:39:17Z</time>
      </trkpt>
      <trkpt lat="48.61907" lon="6.06072">
        <ele>219</ele>
        <time>2024-01-18T11:39:21Z</time>
      </trkpt>
      <trkpt lat="48.61872" lon="6.06121">
        <ele>220</ele>
        <time>2024-01-18T11:39:29Z</time>
      </trkpt>
      <trkpt lat="48.61854" lon="6.06153">
        <ele>220</ele>
        <time>2024-01-18T11:39:34Z</time>
      </trkpt>
      <trkpt lat="48.61836" lon="6.06195">
        <ele>218</ele>
        <time>2024-01-18T11:39:40Z</time>
      </trkpt>
      <trkpt lat="48.61785" lon="6.06338">
        <ele>220</ele>
        <time>2024-01-18T11:39:59Z</time>
      </trkpt>
      <trkpt lat="48.61776" lon="6.06373">
        <ele>219</ele>
        <time>2024-01-18T11:40:04Z</time>
      </trkpt>
      <trkpt lat="48.61726" lon="6.0664">
        <ele>218</ele>
        <time>2024-01-18T11:40:36Z</time>
      </trkpt>
      <trkpt lat="48.61714" lon="6.0677">
        <ele>219</ele>
        <time>2024-01-18T11:40:52Z</time>
      </trkpt>
      <trkpt lat="48.61709" lon="6.06899">
        <ele>221</ele>
        <time>2024-01-18T11:41:07Z</time>
      </trkpt>
      <trkpt lat="48.61703" lon="6.06942">
        <ele>222</ele>
        <time>2024-01-18T11:41:12Z</time>
      </trkpt>
      <trkpt lat="48.61646" lon="6.07196">
        <ele>223</ele>
        <time>2024-01-18T11:41:44Z</time>
      </trkpt>
      <trkpt lat="48.61631" lon="6.0725">
        <ele>222</ele>
        <time>2024-01-18T11:41:51Z</time>
      </trkpt>
      <trkpt lat="48.61605" lon="6.07322">
        <ele>221</ele>
        <time>2024-01-18T11:42:00Z</time>
      </trkpt>
      <trkpt lat="48.61482" lon="6.0758">
        <ele>224</ele>
        <time>2024-01-18T11:42:38Z</time>
      </trkpt>
      <trkpt lat="48.61409" lon="6.07696">
        <ele>229</ele>
        <time>2024-01-18T11:42:57Z</time>
      </trkpt>
      <trkpt lat="48.61383" lon="6.07745">
        <ele>230</ele>
        <time>2024-01-18T11:43:04Z</time>
      </trkpt>
      <trkpt lat="48.61312" lon="6.0786">
        <ele>230</ele>
        <time>2024-01-18T11:43:22Z</time>
      </trkpt>
      <trkpt lat="48.61293" lon="6.07909">
        <ele>231</ele>
        <time>2024-01-18T11:43:29Z</time>
      </trkpt>
      <trkpt lat="48.61255" lon="6.08056">
        <ele>236</ele>
        <time>2024-01-18T11:43:48Z</time>
      </trkpt>
      <trkpt lat="48.61215" lon="6.08183">
        <ele>235</ele>
        <time>2024-01-18T11:44:04Z</time>
      </trkpt>
      <trkpt lat="48.61183" lon="6.08269">
        <ele>233</ele>
        <time>2024-01-18T11:44:16Z</time>
      </trkpt>
      <trkpt lat="48.61127" lon="6.08398">
        <ele>232</ele>
        <time>2024-01-18T11:44:34Z</time>
      </trkpt>
      <trkpt lat="48.61055" lon="6.08602">
        <ele>233</ele>
        <time>2024-01-18T11:45:01Z</time>
      </trkpt>
      <trkpt lat="48.61042" lon="6.08625">
        <ele>233</ele>
        <time>2024-01-18T11:45:05Z</time>
      </trkpt>
      <trkpt lat="48.60997" lon="6.08678">
        <ele>238</ele>
        <time>2024-01-18T11:45:15Z</time>
      </trkpt>
      <trkpt lat="48.60942" lon="6.08752">
        <ele>238</ele>
        <time>2024-01-18T11:45:28Z</time>
      </trkpt>
      <trkpt lat="48.6093" lon="6.08776">
        <ele>237</ele>
        <time>2024-01-18T11:45:32Z</time>
      </trkpt>
      <trkpt lat="48.60917" lon="6.08823">
        <ele>234</ele>
        <time>2024-01-18T11:45:38Z</time>
      </trkpt>
      <trkpt lat="48.60918" lon="6.08828">
        <ele>233</ele>
        <time>2024-01-18T11:45:38Z</time>
      </trkpt>
      <trkpt lat="48.60906" lon="6.08911">
        <ele>231</ele>
        <time>2024-01-18T11:45:48Z</time>
      </trkpt>
      <trkpt lat="48.60919" lon="6.09014">
        <ele>225</ele>
        <time>2024-01-18T11:46:00Z</time>
      </trkpt>
      <trkpt lat="48.60915" lon="6.09056">
        <ele>222</ele>
        <time>2024-01-18T11:46:05Z</time>
      </trkpt>
      <trkpt lat="48.6084" lon="6.09309">
        <ele>218</ele>
        <time>2024-01-18T11:46:38Z</time>
      </trkpt>
      <trkpt lat="48.60685" lon="6.09662">
        <ele>219</ele>
        <time>2024-01-18T11:47:28Z</time>
      </trkpt>
      <trkpt lat="48.60604" lon="6.09869">
        <ele>219</ele>
        <time>2024-01-18T11:47:56Z</time>
      </trkpt>
      <trkpt lat="48.60579" lon="6.09917">
        <ele>220</ele>
        <time>2024-01-18T11:48:03Z</time>
      </trkpt>
      <trkpt lat="48.60569" lon="6.09942">
        <ele>221</ele>
        <time>2024-01-18T11:48:07Z</time>
      </trkpt>
      <trkpt lat="48.60539" lon="6.0997">
        <ele>222</ele>
        <time>2024-01-18T11:48:13Z</time>
      </trkpt>
      <trkpt lat="48.60514" lon="6.09973">
        <ele>223</ele>
        <time>2024-01-18T11:48:18Z</time>
      </trkpt>
      <trkpt lat="48.60509" lon="6.09978">
        <ele>223</ele>
        <time>2024-01-18T11:48:19Z</time>
      </trkpt>
      <trkpt lat="48.6043" lon="6.10088">
        <ele>221</ele>
        <time>2024-01-18T11:48:38Z</time>
      </trkpt>
      <trkpt lat="48.60326" lon="6.102">
        <ele>222</ele>
        <time>2024-01-18T11:49:00Z</time>
      </trkpt>
      <trkpt lat="48.60312" lon="6.10212">
        <ele>222</ele>
        <time>2024-01-18T11:49:03Z</time>
      </trkpt>
      <trkpt lat="48.60197" lon="6.1029">
        <ele>224</ele>
        <time>2024-01-18T11:49:26Z</time>
      </trkpt>
      <trkpt lat="48.60092" lon="6.10368">
        <ele>226</ele>
        <time>2024-01-18T11:49:47Z</time>
      </trkpt>
      <trkpt lat="48.60009" lon="6.10418">
        <ele>225</ele>
        <time>2024-01-18T11:50:02Z</time>
      </trkpt>
      <trkpt lat="48.59993" lon="6.10422">
        <ele>226</ele>
        <time>2024-01-18T11:50:05Z</time>
      </trkpt>
      <trkpt lat="48.5996" lon="6.10421">
        <ele>225</ele>
        <time>2024-01-18T11:50:11Z</time>
      </trkpt>
      <trkpt lat="48.59799" lon="6.10402">
        <ele>221</ele>
        <time>2024-01-18T11:50:40Z</time>
      </trkpt>
      <trkpt lat="48.59671" lon="6.10364">
        <ele>223</ele>
        <time>2024-01-18T11:51:03Z</time>
      </trkpt>
      <trkpt lat="48.59571" lon="6.10331">
        <ele>222</ele>
        <time>2024-01-18T11:51:21Z</time>
      </trkpt>
      <trkpt lat="48.59476" lon="6.10288">
        <ele>222</ele>
        <time>2024-01-18T11:51:39Z</time>
      </trkpt>
      <trkpt lat="48.59438" lon="6.10266">
        <ele>222</ele>
        <time>2024-01-18T11:51:46Z</time>
      </trkpt>
      <trkpt lat="48.5944" lon="6.10253">
        <ele>222</ele>
        <time>2024-01-18T11:51:48Z</time>
      </trkpt>
      <trkpt lat="48.59437" lon="6.10247">
        <ele>223</ele>
        <time>2024-01-18T11:51:49Z</time>
      </trkpt>
      <trkpt lat="48.59333" lon="6.10178">
        <ele>223</ele>
        <time>2024-01-18T11:52:09Z</time>
      </trkpt>
      <trkpt lat="48.59324" lon="6.10175">
        <ele>223</ele>
        <time>2024-01-18T11:52:11Z</time>
      </trkpt>
      <trkpt lat="48.59314" lon="6.10184">
        <ele>222</ele>
        <time>2024-01-18T11:52:13Z</time>
      </trkpt>
      <trkpt lat="48.59232" lon="6.10123">
        <ele>223</ele>
        <time>2024-01-18T11:52:29Z</time>
      </trkpt>
      <trkpt lat="48.59151" lon="6.10058">
        <ele>224</ele>
        <time>2024-01-18T11:52:45Z</time>
      </trkpt>
      <trkpt lat="48.59104" lon="6.10017">
        <ele>224</ele>
        <time>2024-01-18T11:52:55Z</time>
      </trkpt>
      <trkpt lat="48.58837" lon="6.09806">
        <ele>224</ele>
        <time>2024-01-18T11:53:49Z</time>
      </trkpt>
      <trkpt lat="48.58796" lon="6.09766">
        <ele>225</ele>
        <time>2024-01-18T11:53:57Z</time>
      </trkpt>
      <trkpt lat="48.58766" lon="6.09726">
        <ele>225</ele>
        <time>2024-01-18T11:54:04Z</time>
      </trkpt>
      <trkpt lat="48.58749" lon="6.09691">
        <ele>225</ele>
        <time>2024-01-18T11:54:09Z</time>
      </trkpt>
      <trkpt lat="48.58732" lon="6.09705">
        <ele>224</ele>
        <time>2024-01-18T11:54:13Z</time>
      </trkpt>
      <trkpt lat="48.58726" lon="6.09715">
        <ele>224</ele>
        <time>2024-01-18T11:54:14Z</time>
      </trkpt>
      <trkpt lat="48.58715" lon="6.09725">
        <ele>224</ele>
        <time>2024-01-18T11:54:17Z</time>
      </trkpt>
      <trkpt lat="48.58693" lon="6.09766">
        <ele>223</ele>
        <time>2024-01-18T11:54:23Z</time>
      </trkpt>
      <trkpt lat="48.58684" lon="6.09805">
        <ele>223</ele>
        <time>2024-01-18T11:54:28Z</time>
      </trkpt>
      <trkpt lat="48.58666" lon="6.09911">
        <ele>221</ele>
        <time>2024-01-18T11:54:41Z</time>
      </trkpt>
      <trkpt lat="48.58659" lon="6.09939">
        <ele>221</ele>
        <time>2024-01-18T11:54:44Z</time>
      </trkpt>
      <trkpt lat="48.58647" lon="6.09956">
        <ele>221</ele>
        <time>2024-01-18T11:54:47Z</time>
      </trkpt>
      <trkpt lat="48.58452" lon="6.10073">
        <ele>221</ele>
        <time>2024-01-18T11:55:24Z</time>
      </trkpt>
      <trkpt lat="48.58399" lon="6.10109">
        <ele>221</ele>
        <time>2024-01-18T11:55:35Z</time>
      </trkpt>
      <trkpt lat="48.58362" lon="6.10129">
        <ele>221</ele>
        <time>2024-01-18T11:55:42Z</time>
      </trkpt>
      <trkpt lat="48.58291" lon="6.10156">
        <ele>220</ele>
        <time>2024-01-18T11:55:55Z</time>
      </trkpt>
      <trkpt lat="48.58236" lon="6.10185">
        <ele>221</ele>
        <time>2024-01-18T11:56:05Z</time>
      </trkpt>
      <trkpt lat="48.5809" lon="6.1028">
        <ele>221</ele>
        <time>2024-01-18T11:56:33Z</time>
      </trkpt>
      <trkpt lat="48.57981" lon="6.10346">
        <ele>219</ele>
        <time>2024-01-18T11:56:54Z</time>
      </trkpt>
      <trkpt lat="48.57775" lon="6.10478">
        <ele>222</ele>
        <time>2024-01-18T11:57:34Z</time>
      </trkpt>
      <trkpt lat="48.57724" lon="6.10502">
        <ele>222</ele>
        <time>2024-01-18T11:57:44Z</time>
      </trkpt>
      <trkpt lat="48.57678" lon="6.10519">
        <ele>222</ele>
        <time>2024-01-18T11:57:52Z</time>
      </trkpt>
      <trkpt lat="48.57613" lon="6.10534">
        <ele>222</ele>
        <time>2024-01-18T11:58:04Z</time>
      </trkpt>
      <trkpt lat="48.57526" lon="6.10542">
        <ele>222</ele>
        <time>2024-01-18T11:58:19Z</time>
      </trkpt>
      <trkpt lat="48.57483" lon="6.1054">
        <ele>222</ele>
        <time>2024-01-18T11:58:27Z</time>
      </trkpt>
      <trkpt lat="48.57409" lon="6.10528">
        <ele>223</ele>
        <time>2024-01-18T11:58:40Z</time>
      </trkpt>
      <trkpt lat="48.57359" lon="6.1051">
        <ele>224</ele>
        <time>2024-01-18T11:58:49Z</time>
      </trkpt>
      <trkpt lat="48.57291" lon="6.10475">
        <ele>225</ele>
        <time>2024-01-18T11:59:02Z</time>
      </trkpt>
      <trkpt lat="48.57249" lon="6.10446">
        <ele>225</ele>
        <time>2024-01-18T11:59:10Z</time>
      </trkpt>
      <trkpt lat="48.5711" lon="6.10342">
        <ele>225</ele>
        <time>2024-01-18T11:59:38Z</time>
      </trkpt>
      <trkpt lat="48.5708" lon="6.10323">
        <ele>224</ele>
        <time>2024-01-18T11:59:44Z</time>
      </trkpt>
      <trkpt lat="48.57023" lon="6.10292">
        <ele>224</ele>
        <time>2024-01-18T11:59:55Z</time>
      </trkpt>
      <trkpt lat="48.57023" lon="6.1027">
        <ele>224</ele>
        <time>2024-01-18T11:59:57Z</time>
      </trkpt>
      <trkpt lat="48.5699" lon="6.1016">
        <ele>224</ele>
        <time>2024-01-18T12:00:11Z</time>
      </trkpt>
      <trkpt lat="48.56965" lon="6.10094">
        <ele>229</ele>
        <time>2024-01-18T12:00:20Z</time>
      </trkpt>
      <trkpt lat="48.56949" lon="6.10068">
        <ele>231</ele>
        <time>2024-01-18T12:00:24Z</time>
      </trkpt>
      <trkpt lat="48.56698" lon="6.0979">
        <ele>248</ele>
        <time>2024-01-18T12:01:20Z</time>
      </trkpt>
      <trkpt lat="48.56686" lon="6.09781">
        <ele>249</ele>
        <time>2024-01-18T12:01:22Z</time>
      </trkpt>
      <trkpt lat="48.56672" lon="6.09776">
        <ele>250</ele>
        <time>2024-01-18T12:01:25Z</time>
      </trkpt>
      <trkpt lat="48.5665" lon="6.0978">
        <ele>251</ele>
        <time>2024-01-18T12:01:29Z</time>
      </trkpt>
      <trkpt lat="48.56628" lon="6.09801">
        <ele>254</ele>
        <time>2024-01-18T12:01:33Z</time>
      </trkpt>
      <trkpt lat="48.56599" lon="6.09841">
        <ele>256</ele>
        <time>2024-01-18T12:01:40Z</time>
      </trkpt>
      <trkpt lat="48.56546" lon="6.09874">
        <ele>257</ele>
        <time>2024-01-18T12:01:51Z</time>
      </trkpt>
      <trkpt lat="48.5653" lon="6.09881">
        <ele>257</ele>
        <time>2024-01-18T12:01:53Z</time>
      </trkpt>
      <trkpt lat="48.56504" lon="6.09887">
        <ele>257</ele>
        <time>2024-01-18T12:01:58Z</time>
      </trkpt>
      <trkpt lat="48.56494" lon="6.09879">
        <ele>258</ele>
        <time>2024-01-18T12:02:00Z</time>
      </trkpt>
      <trkpt lat="48.56435" lon="6.09806">
        <ele>260</ele>
        <time>2024-01-18T12:02:14Z</time>
      </trkpt>
      <trkpt lat="48.56412" lon="6.09782">
        <ele>261</ele>
        <time>2024-01-18T12:02:19Z</time>
      </trkpt>
      <trkpt lat="48.56343" lon="6.09731">
        <ele>261</ele>
        <time>2024-01-18T12:02:32Z</time>
      </trkpt>
      <trkpt lat="48.5626" lon="6.09684">
        <ele>260</ele>
        <time>2024-01-18T12:02:48Z</time>
      </trkpt>
      <trkpt lat="48.56248" lon="6.09681">
        <ele>260</ele>
        <time>2024-01-18T12:02:50Z</time>
      </trkpt>
      <trkpt lat="48.56203" lon="6.09687">
        <ele>261</ele>
        <time>2024-01-18T12:02:58Z</time>
      </trkpt>
      <trkpt lat="48.55884" lon="6.09745">
        <ele>255</ele>
        <time>2024-01-18T12:03:56Z</time>
      </trkpt>
      <trkpt lat="48.55855" lon="6.09742">
        <ele>253</ele>
        <time>2024-01-18T12:04:01Z</time>
      </trkpt>
      <trkpt lat="48.55839" lon="6.09736">
        <ele>253</ele>
        <time>2024-01-18T12:04:04Z</time>
      </trkpt>
      <trkpt lat="48.55809" lon="6.09719">
        <ele>251</ele>
        <time>2024-01-18T12:04:09Z</time>
      </trkpt>
      <trkpt lat="48.55726" lon="6.09648">
        <ele>248</ele>
        <time>2024-01-18T12:04:26Z</time>
      </trkpt>
      <trkpt lat="48.55479" lon="6.09423">
        <ele>237</ele>
        <time>2024-01-18T12:05:18Z</time>
      </trkpt>
      <trkpt lat="48.5547" lon="6.09417">
        <ele>237</ele>
        <time>2024-01-18T12:05:19Z</time>
      </trkpt>
      <trkpt lat="48.55451" lon="6.09411">
        <ele>237</ele>
        <time>2024-01-18T12:05:23Z</time>
      </trkpt>
      <trkpt lat="48.55435" lon="6.09418">
        <ele>236</ele>
        <time>2024-01-18T12:05:26Z</time>
      </trkpt>
      <trkpt lat="48.55428" lon="6.09424">
        <ele>235</ele>
        <time>2024-01-18T12:05:27Z</time>
      </trkpt>
      <trkpt lat="48.55422" lon="6.09432">
        <ele>235</ele>
        <time>2024-01-18T12:05:29Z</time>
      </trkpt>
      <trkpt lat="48.55393" lon="6.0949">
        <ele>233</ele>
        <time>2024-01-18T12:05:37Z</time>
      </trkpt>
      <trkpt lat="48.55377" lon="6.09515">
        <ele>234</ele>
        <time>2024-01-18T12:05:41Z</time>
      </trkpt>
      <trkpt lat="48.55366" lon="6.09524">
        <ele>235</ele>
        <time>2024-01-18T12:05:44Z</time>
      </trkpt>
      <trkpt lat="48.55356" lon="6.09527">
        <ele>235</ele>
        <time>2024-01-18T12:05:45Z</time>
      </trkpt>
      <trkpt lat="48.55333" lon="6.09528">
        <ele>236</ele>
        <time>2024-01-18T12:05:49Z</time>
      </trkpt>
      <trkpt lat="48.55108" lon="6.0946">
        <ele>239</ele>
        <time>2024-01-18T12:06:30Z</time>
      </trkpt>
      <trkpt lat="48.55068" lon="6.09452">
        <ele>239</ele>
        <time>2024-01-18T12:06:37Z</time>
      </trkpt>
      <trkpt lat="48.55046" lon="6.09456">
        <ele>241</ele>
        <time>2024-01-18T12:06:41Z</time>
      </trkpt>
      <trkpt lat="48.55013" lon="6.09466">
        <ele>244</ele>
        <time>2024-01-18T12:06:47Z</time>
      </trkpt>
      <trkpt lat="48.54895" lon="6.09512">
        <ele>251</ele>
        <time>2024-01-18T12:07:09Z</time>
      </trkpt>
      <trkpt lat="48.5487" lon="6.09517">
        <ele>251</ele>
        <time>2024-01-18T12:07:14Z</time>
      </trkpt>
      <trkpt lat="48.54846" lon="6.09518">
        <ele>250</ele>
        <time>2024-01-18T12:07:18Z</time>
      </trkpt>
      <trkpt lat="48.54804" lon="6.09512">
        <ele>251</ele>
        <time>2024-01-18T12:07:25Z</time>
      </trkpt>
      <trkpt lat="48.5474" lon="6.09489">
        <ele>252</ele>
        <time>2024-01-18T12:07:37Z</time>
      </trkpt>
      <trkpt lat="48.5469" lon="6.09476">
        <ele>253</ele>
        <time>2024-01-18T12:07:46Z</time>
      </trkpt>
      <trkpt lat="48.54571" lon="6.09489">
        <ele>260</ele>
        <time>2024-01-18T12:08:07Z</time>
      </trkpt>
      <trkpt lat="48.54483" lon="6.09484">
        <ele>261</ele>
        <time>2024-01-18T12:08:23Z</time>
      </trkpt>
      <trkpt lat="48.54415" lon="6.09461">
        <ele>260</ele>
        <time>2024-01-18T12:08:35Z</time>
      </trkpt>
      <trkpt lat="48.54358" lon="6.09432">
        <ele>261</ele>
        <time>2024-01-18T12:08:46Z</time>
      </trkpt>
      <trkpt lat="48.54305" lon="6.09394">
        <ele>261</ele>
        <time>2024-01-18T12:08:57Z</time>
      </trkpt>
      <trkpt lat="48.54164" lon="6.09313">
        <ele>264</ele>
        <time>2024-01-18T12:09:23Z</time>
      </trkpt>
      <trkpt lat="48.54068" lon="6.09232">
        <ele>266</ele>
        <time>2024-01-18T12:09:43Z</time>
      </trkpt>
      <trkpt lat="48.54017" lon="6.09184">
        <ele>265</ele>
        <time>2024-01-18T12:09:54Z</time>
      </trkpt>
      <trkpt lat="48.54001" lon="6.09166">
        <ele>265</ele>
        <time>2024-01-18T12:09:57Z</time>
      </trkpt>
      <trkpt lat="48.53976" lon="6.09135">
        <ele>265</ele>
        <time>2024-01-18T12:10:03Z</time>
      </trkpt>
      <trkpt lat="48.53939" lon="6.09075">
        <ele>265</ele>
        <time>2024-01-18T12:10:13Z</time>
      </trkpt>
      <trkpt lat="48.53898" lon="6.08998">
        <ele>262</ele>
        <time>2024-01-18T12:10:24Z</time>
      </trkpt>
      <trkpt lat="48.53872" lon="6.08964">
        <ele>262</ele>
        <time>2024-01-18T12:10:30Z</time>
      </trkpt>
      <trkpt lat="48.53797" lon="6.08905">
        <ele>261</ele>
        <time>2024-01-18T12:10:45Z</time>
      </trkpt>
      <trkpt lat="48.53781" lon="6.08896">
        <ele>261</ele>
        <time>2024-01-18T12:10:48Z</time>
      </trkpt>
      <trkpt lat="48.53752" lon="6.08884">
        <ele>263</ele>
        <time>2024-01-18T12:10:54Z</time>
      </trkpt>
      <trkpt lat="48.53714" lon="6.08879">
        <ele>263</ele>
        <time>2024-01-18T12:11:01Z</time>
      </trkpt>
      <trkpt lat="48.53666" lon="6.08882">
        <ele>263</ele>
        <time>2024-01-18T12:11:09Z</time>
      </trkpt>
      <trkpt lat="48.53615" lon="6.08893">
        <ele>265</ele>
        <time>2024-01-18T12:11:18Z</time>
      </trkpt>
      <trkpt lat="48.536" lon="6.08899">
        <ele>265</ele>
        <time>2024-01-18T12:11:21Z</time>
      </trkpt>
      <trkpt lat="48.53591" lon="6.08909">
        <ele>266</ele>
        <time>2024-01-18T12:11:23Z</time>
      </trkpt>
      <trkpt lat="48.53578" lon="6.08933">
        <ele>268</ele>
        <time>2024-01-18T12:11:27Z</time>
      </trkpt>
      <trkpt lat="48.53531" lon="6.0907">
        <ele>278</ele>
        <time>2024-01-18T12:11:45Z</time>
      </trkpt>
      <trkpt lat="48.53498" lon="6.09142">
        <ele>279</ele>
        <time>2024-01-18T12:11:55Z</time>
      </trkpt>
      <trkpt lat="48.53482" lon="6.09165">
        <ele>280</ele>
        <time>2024-01-18T12:11:59Z</time>
      </trkpt>
      <trkpt lat="48.53467" lon="6.09177">
        <ele>281</ele>
        <time>2024-01-18T12:12:02Z</time>
      </trkpt>
      <trkpt lat="48.53449" lon="6.09187">
        <ele>282</ele>
        <time>2024-01-18T12:12:06Z</time>
      </trkpt>
      <trkpt lat="48.53426" lon="6.09197">
        <ele>284</ele>
        <time>2024-01-18T12:12:10Z</time>
      </trkpt>
      <trkpt lat="48.53412" lon="6.09199">
        <ele>284</ele>
        <time>2024-01-18T12:12:12Z</time>
      </trkpt>
      <trkpt lat="48.53398" lon="6.09185">
        <ele>285</ele>
        <time>2024-01-18T12:12:15Z</time>
      </trkpt>
      <trkpt lat="48.53367" lon="6.09122">
        <ele>286</ele>
        <time>2024-01-18T12:12:25Z</time>
      </trkpt>
      <trkpt lat="48.53363" lon="6.09121">
        <ele>286</ele>
        <time>2024-01-18T12:12:25Z</time>
      </trkpt>
      <trkpt lat="48.53354" lon="6.09124">
        <ele>286</ele>
        <time>2024-01-18T12:12:27Z</time>
      </trkpt>
      <trkpt lat="48.53198" lon="6.09255">
        <ele>291</ele>
        <time>2024-01-18T12:12:59Z</time>
      </trkpt>
      <trkpt lat="48.53091" lon="6.09319">
        <ele>291</ele>
        <time>2024-01-18T12:13:19Z</time>
      </trkpt>
      <trkpt lat="48.53067" lon="6.09337">
        <ele>291</ele>
        <time>2024-01-18T12:13:24Z</time>
      </trkpt>
      <trkpt lat="48.52962" lon="6.09436">
        <ele>295</ele>
        <time>2024-01-18T12:13:46Z</time>
      </trkpt>
      <trkpt lat="48.52919" lon="6.09487">
        <ele>295</ele>
        <time>2024-01-18T12:13:56Z</time>
      </trkpt>
      <trkpt lat="48.5284" lon="6.09625">
        <ele>298</ele>
        <time>2024-01-18T12:14:17Z</time>
      </trkpt>
      <trkpt lat="48.52816" lon="6.09661">
        <ele>299</ele>
        <time>2024-01-18T12:14:23Z</time>
      </trkpt>
      <trkpt lat="48.52792" lon="6.09691">
        <ele>299</ele>
        <time>2024-01-18T12:14:29Z</time>
      </trkpt>
      <trkpt lat="48.52764" lon="6.09717">
        <ele>299</ele>
        <time>2024-01-18T12:14:35Z</time>
      </trkpt>
      <trkpt lat="48.52692" lon="6.09761">
        <ele>299</ele>
        <time>2024-01-18T12:14:48Z</time>
      </trkpt>
      <trkpt lat="48.52628" lon="6.09803">
        <ele>300</ele>
        <time>2024-01-18T12:15:01Z</time>
      </trkpt>
      <trkpt lat="48.52543" lon="6.09864">
        <ele>303</ele>
        <time>2024-01-18T12:15:18Z</time>
      </trkpt>
      <trkpt lat="48.52465" lon="6.09913">
        <ele>305</ele>
        <time>2024-01-18T12:15:33Z</time>
      </trkpt>
      <trkpt lat="48.52439" lon="6.09924">
        <ele>305</ele>
        <time>2024-01-18T12:15:37Z</time>
      </trkpt>
      <trkpt lat="48.52427" lon="6.09926">
        <ele>305</ele>
        <time>2024-01-18T12:15:40Z</time>
      </trkpt>
      <trkpt lat="48.52276" lon="6.09922">
        <ele>306</ele>
        <time>2024-01-18T12:16:06Z</time>
      </trkpt>
      <trkpt lat="48.52256" lon="6.09918">
        <ele>305</ele>
        <time>2024-01-18T12:16:10Z</time>
      </trkpt>
      <trkpt lat="48.52164" lon="6.09881">
        <ele>306</ele>
        <time>2024-01-18T12:16:27Z</time>
      </trkpt>
      <trkpt lat="48.52147" lon="6.09879">
        <ele>306</ele>
        <time>2024-01-18T12:16:30Z</time>
      </trkpt>
      <trkpt lat="48.52125" lon="6.09883">
        <ele>306</ele>
        <time>2024-01-18T12:16:34Z</time>
      </trkpt>
      <trkpt lat="48.52103" lon="6.09892">
        <ele>306</ele>
        <time>2024-01-18T12:16:38Z</time>
      </trkpt>
      <trkpt lat="48.51892" lon="6.10013">
        <ele>309</ele>
        <time>2024-01-18T12:17:18Z</time>
      </trkpt>
      <trkpt lat="48.51747" lon="6.10088">
        <ele>307</ele>
        <time>2024-01-18T12:17:45Z</time>
      </trkpt>
      <trkpt lat="48.51694" lon="6.10102">
        <ele>309</ele>
        <time>2024-01-18T12:17:55Z</time>
      </trkpt>
      <trkpt lat="48.51617" lon="6.10103">
        <ele>310</ele>
        <time>2024-01-18T12:18:09Z</time>
      </trkpt>
      <trkpt lat="48.5153" lon="6.10129">
        <ele>310</ele>
        <time>2024-01-18T12:18:24Z</time>
      </trkpt>
      <trkpt lat="48.5143" lon="6.10174">
        <ele>312</ele>
        <time>2024-01-18T12:18:43Z</time>
      </trkpt>
      <trkpt lat="48.51403" lon="6.1018">
        <ele>312</ele>
        <time>2024-01-18T12:18:48Z</time>
      </trkpt>
      <trkpt lat="48.51382" lon="6.10179">
        <ele>312</ele>
        <time>2024-01-18T12:18:52Z</time>
      </trkpt>
      <trkpt lat="48.51314" lon="6.10146">
        <ele>311</ele>
        <time>2024-01-18T12:19:04Z</time>
      </trkpt>
      <trkpt lat="48.51252" lon="6.10093">
        <ele>311</ele>
        <time>2024-01-18T12:19:17Z</time>
      </trkpt>
      <trkpt lat="48.51228" lon="6.10086">
        <ele>311</ele>
        <time>2024-01-18T12:19:21Z</time>
      </trkpt>
      <trkpt lat="48.51218" lon="6.10088">
        <ele>311</ele>
        <time>2024-01-18T12:19:23Z</time>
      </trkpt>
      <trkpt lat="48.51208" lon="6.10091">
        <ele>311</ele>
        <time>2024-01-18T12:19:25Z</time>
      </trkpt>
      <trkpt lat="48.51195" lon="6.10099">
        <ele>311</ele>
        <time>2024-01-18T12:19:27Z</time>
      </trkpt>
      <trkpt lat="48.5112" lon="6.10167">
        <ele>310</ele>
        <time>2024-01-18T12:19:43Z</time>
      </trkpt>
      <trkpt lat="48.5111" lon="6.10173">
        <ele>310</ele>
        <time>2024-01-18T12:19:45Z</time>
      </trkpt>
      <trkpt lat="48.51088" lon="6.10182">
        <ele>310</ele>
        <time>2024-01-18T12:19:49Z</time>
      </trkpt>
      <trkpt lat="48.51039" lon="6.1019">
        <ele>310</ele>
        <time>2024-01-18T12:19:58Z</time>
      </trkpt>
      <trkpt lat="48.51027" lon="6.10194">
        <ele>310</ele>
        <time>2024-01-18T12:20:00Z</time>
      </trkpt>
      <trkpt lat="48.51003" lon="6.10215">
        <ele>310</ele>
        <time>2024-01-18T12:20:05Z</time>
      </trkpt>
      <trkpt lat="48.50945" lon="6.10274">
        <ele>310</ele>
        <time>2024-01-18T12:20:17Z</time>
      </trkpt>
      <trkpt lat="48.50937" lon="6.10276">
        <ele>310</ele>
        <time>2024-01-18T12:20:19Z</time>
      </trkpt>
      <trkpt lat="48.50928" lon="6.10275">
        <ele>311</ele>
        <time>2024-01-18T12:20:20Z</time>
      </trkpt>
      <trkpt lat="48.50922" lon="6.10271">
        <ele>310</ele>
        <time>2024-01-18T12:20:22Z</time>
      </trkpt>
      <trkpt lat="48.50854" lon="6.102">
        <ele>311</ele>
        <time>2024-01-18T12:20:36Z</time>
      </trkpt>
      <trkpt lat="48.50842" lon="6.10197">
        <ele>311</ele>
        <time>2024-01-18T12:20:38Z</time>
      </trkpt>
      <trkpt lat="48.50826" lon="6.10208">
        <ele>312</ele>
        <time>2024-01-18T12:20:42Z</time>
      </trkpt>
      <trkpt lat="48.50739" lon="6.10311">
        <ele>314</ele>
        <time>2024-01-18T12:21:01Z</time>
      </trkpt>
      <trkpt lat="48.50729" lon="6.10316">
        <ele>314</ele>
        <time>2024-01-18T12:21:03Z</time>
      </trkpt>
      <trkpt lat="48.50723" lon="6.10315">
        <ele>314</ele>
        <time>2024-01-18T12:21:04Z</time>
      </trkpt>
      <trkpt lat="48.50718" lon="6.10311">
        <ele>314</ele>
        <time>2024-01-18T12:21:05Z</time>
      </trkpt>
      <trkpt lat="48.50668" lon="6.10218">
        <ele>313</ele>
        <time>2024-01-18T12:21:19Z</time>
      </trkpt>
      <trkpt lat="48.50605" lon="6.1011">
        <ele>311</ele>
        <time>2024-01-18T12:21:36Z</time>
      </trkpt>
      <trkpt lat="48.50573" lon="6.1007">
        <ele>311</ele>
        <time>2024-01-18T12:21:44Z</time>
      </trkpt>
      <trkpt lat="48.50556" lon="6.10057">
        <ele>310</ele>
        <time>2024-01-18T12:21:47Z</time>
      </trkpt>
      <trkpt lat="48.50538" lon="6.10058">
        <ele>310</ele>
        <time>2024-01-18T12:21:50Z</time>
      </trkpt>
      <trkpt lat="48.50532" lon="6.10063">
        <ele>310</ele>
        <time>2024-01-18T12:21:51Z</time>
      </trkpt>
      <trkpt lat="48.50458" lon="6.10151">
        <ele>307</ele>
        <time>2024-01-18T12:22:08Z</time>
      </trkpt>
      <trkpt lat="48.50446" lon="6.10156">
        <ele>307</ele>
        <time>2024-01-18T12:22:10Z</time>
      </trkpt>
      <trkpt lat="48.50435" lon="6.10149">
        <ele>307</ele>
        <time>2024-01-18T12:22:13Z</time>
      </trkpt>
      <trkpt lat="48.50407" lon="6.1011">
        <ele>306</ele>
        <time>2024-01-18T12:22:19Z</time>
      </trkpt>
      <trkpt lat="48.5034" lon="6.10084">
        <ele>300</ele>
        <time>2024-01-18T12:22:32Z</time>
      </trkpt>
      <trkpt lat="48.5029" lon="6.10056">
        <ele>294</ele>
        <time>2024-01-18T12:22:41Z</time>
      </trkpt>
      <trkpt lat="48.50034" lon="6.09798">
        <ele>271</ele>
        <time>2024-01-18T12:23:36Z</time>
      </trkpt>
      <trkpt lat="48.49968" lon="6.09719">
        <ele>266</ele>
        <time>2024-01-18T12:23:51Z</time>
      </trkpt>
      <trkpt lat="48.4986" lon="6.09556">
        <ele>257</ele>
        <time>2024-01-18T12:24:18Z</time>
      </trkpt>
      <trkpt lat="48.49838" lon="6.0954">
        <ele>253</ele>
        <time>2024-01-18T12:24:22Z</time>
      </trkpt>
      <trkpt lat="48.49691" lon="6.09541">
        <ele>245</ele>
        <time>2024-01-18T12:24:49Z</time>
      </trkpt>
      <trkpt lat="48.49578" lon="6.09539">
        <ele>245</ele>
        <time>2024-01-18T12:25:09Z</time>
      </trkpt>
      <trkpt lat="48.49557" lon="6.09535">
        <ele>245</ele>
        <time>2024-01-18T12:25:12Z</time>
      </trkpt>
      <trkpt lat="48.49507" lon="6.09518">
        <ele>246</ele>
        <time>2024-01-18T12:25:22Z</time>
      </trkpt>
      <trkpt lat="48.49297" lon="6.09425">
        <ele>249</ele>
        <time>2024-01-18T12:26:00Z</time>
      </trkpt>
      <trkpt lat="48.49272" lon="6.09418">
        <ele>250</ele>
        <time>2024-01-18T12:26:05Z</time>
      </trkpt>
      <trkpt lat="48.4924" lon="6.09413">
        <ele>252</ele>
        <time>2024-01-18T12:26:11Z</time>
      </trkpt>
      <trkpt lat="48.49174" lon="6.0942">
        <ele>253</ele>
        <time>2024-01-18T12:26:23Z</time>
      </trkpt>
      <trkpt lat="48.49147" lon="6.09409">
        <ele>253</ele>
        <time>2024-01-18T12:26:27Z</time>
      </trkpt>
      <trkpt lat="48.49016" lon="6.0932">
        <ele>250</ele>
        <time>2024-01-18T12:26:53Z</time>
      </trkpt>
      <trkpt lat="48.49009" lon="6.09312">
        <ele>250</ele>
        <time>2024-01-18T12:26:55Z</time>
      </trkpt>
      <trkpt lat="48.48993" lon="6.09288">
        <ele>249</ele>
        <time>2024-01-18T12:26:59Z</time>
      </trkpt>
      <trkpt lat="48.48907" lon="6.09128">
        <ele>250</ele>
        <time>2024-01-18T12:27:23Z</time>
      </trkpt>
      <trkpt lat="48.4889" lon="6.09145">
        <ele>250</ele>
        <time>2024-01-18T12:27:27Z</time>
      </trkpt>
      <trkpt lat="48.48816" lon="6.09207">
        <ele>252</ele>
        <time>2024-01-18T12:27:42Z</time>
      </trkpt>
      <trkpt lat="48.48768" lon="6.09031">
        <ele>255</ele>
        <time>2024-01-18T12:28:04Z</time>
      </trkpt>
      <trkpt lat="48.48761" lon="6.0901">
        <ele>255</ele>
        <time>2024-01-18T12:28:07Z</time>
      </trkpt>
      <trkpt lat="48.48736" lon="6.08966">
        <ele>256</ele>
        <time>2024-01-18T12:28:14Z</time>
      </trkpt>
      <trkpt lat="48.48735" lon="6.08951">
        <ele>255</ele>
        <time>2024-01-18T12:28:15Z</time>
      </trkpt>
      <trkpt lat="48.48753" lon="6.08891">
        <ele>252</ele>
        <time>2024-01-18T12:28:23Z</time>
      </trkpt>
      <trkpt lat="48.48741" lon="6.08845">
        <ele>252</ele>
        <time>2024-01-18T12:28:29Z</time>
      </trkpt>
      <trkpt lat="48.48735" lon="6.08803">
        <ele>251</ele>
        <time>2024-01-18T12:28:34Z</time>
      </trkpt>
      <trkpt lat="48.487" lon="6.08735">
        <ele>253</ele>
        <time>2024-01-18T12:28:44Z</time>
      </trkpt>
      <trkpt lat="48.48684" lon="6.08716">
        <ele>254</ele>
        <time>2024-01-18T12:28:48Z</time>
      </trkpt>
      <trkpt lat="48.48673" lon="6.08696">
        <ele>254</ele>
        <time>2024-01-18T12:28:51Z</time>
      </trkpt>
      <trkpt lat="48.48653" lon="6.0863">
        <ele>255</ele>
        <time>2024-01-18T12:29:00Z</time>
      </trkpt>
      <trkpt lat="48.48624" lon="6.0866">
        <ele>256</ele>
        <time>2024-01-18T12:29:06Z</time>
      </trkpt>
      <trkpt lat="48.48593" lon="6.08697">
        <ele>255</ele>
        <time>2024-01-18T12:29:13Z</time>
      </trkpt>
      <trkpt lat="48.48559" lon="6.08688">
        <ele>255</ele>
        <time>2024-01-18T12:29:19Z</time>
      </trkpt>
      <trkpt lat="48.48453" lon="6.08638">
        <ele>258</ele>
        <time>2024-01-18T12:29:39Z</time>
      </trkpt>
      <trkpt lat="48.48432" lon="6.08626">
        <ele>259</ele>
        <time>2024-01-18T12:29:43Z</time>
      </trkpt>
      <trkpt lat="48.48411" lon="6.08609">
        <ele>259</ele>
        <time>2024-01-18T12:29:47Z</time>
      </trkpt>
      <trkpt lat="48.48394" lon="6.0859">
        <ele>259</ele>
        <time>2024-01-18T12:29:51Z</time>
      </trkpt>
      <trkpt lat="48.48328" lon="6.08497">
        <ele>257</ele>
        <time>2024-01-18T12:30:07Z</time>
      </trkpt>
      <trkpt lat="48.48211" lon="6.08348">
        <ele>256</ele>
        <time>2024-01-18T12:30:34Z</time>
      </trkpt>
      <trkpt lat="48.48188" lon="6.0831">
        <ele>257</ele>
        <time>2024-01-18T12:30:40Z</time>
      </trkpt>
      <trkpt lat="48.48177" lon="6.08276">
        <ele>259</ele>
        <time>2024-01-18T12:30:45Z</time>
      </trkpt>
      <trkpt lat="48.48173" lon="6.08271">
        <ele>259</ele>
        <time>2024-01-18T12:30:45Z</time>
      </trkpt>
      <trkpt lat="48.48167" lon="6.0827">
        <ele>259</ele>
        <time>2024-01-18T12:30:47Z</time>
      </trkpt>
      <trkpt lat="48.48052" lon="6.08319">
        <ele>257</ele>
        <time>2024-01-18T12:31:08Z</time>
      </trkpt>
      <trkpt lat="48.48016" lon="6.08332">
        <ele>258</ele>
        <time>2024-01-18T12:31:14Z</time>
      </trkpt>
      <trkpt lat="48.47991" lon="6.08334">
        <ele>260</ele>
        <time>2024-01-18T12:31:19Z</time>
      </trkpt>
      <trkpt lat="48.47971" lon="6.08327">
        <ele>261</ele>
        <time>2024-01-18T12:31:22Z</time>
      </trkpt>
      <trkpt lat="48.47929" lon="6.08307">
        <ele>266</ele>
        <time>2024-01-18T12:31:30Z</time>
      </trkpt>
      <trkpt lat="48.47914" lon="6.08297">
        <ele>268</ele>
        <time>2024-01-18T12:31:33Z</time>
      </trkpt>
      <trkpt lat="48.47862" lon="6.0825">
        <ele>274</ele>
        <time>2024-01-18T12:31:44Z</time>
      </trkpt>
      <trkpt lat="48.47825" lon="6.08233">
        <ele>277</ele>
        <time>2024-01-18T12:31:51Z</time>
      </trkpt>
      <trkpt lat="48.47788" lon="6.08228">
        <ele>279</ele>
        <time>2024-01-18T12:31:58Z</time>
      </trkpt>
      <trkpt lat="48.47679" lon="6.08224">
        <ele>282</ele>
        <time>2024-01-18T12:32:17Z</time>
      </trkpt>
      <trkpt lat="48.47656" lon="6.08216">
        <ele>283</ele>
        <time>2024-01-18T12:32:21Z</time>
      </trkpt>
      <trkpt lat="48.47644" lon="6.08207">
        <ele>283</ele>
        <time>2024-01-18T12:32:24Z</time>
      </trkpt>
      <trkpt lat="48.47634" lon="6.08195">
        <ele>284</ele>
        <time>2024-01-18T12:32:26Z</time>
      </trkpt>
      <trkpt lat="48.47624" lon="6.08177">
        <ele>286</ele>
        <time>2024-01-18T12:32:29Z</time>
      </trkpt>
      <trkpt lat="48.47617" lon="6.08157">
        <ele>287</ele>
        <time>2024-01-18T12:32:31Z</time>
      </trkpt>
      <trkpt lat="48.47592" lon="6.08051">
        <ele>288</ele>
        <time>2024-01-18T12:32:44Z</time>
      </trkpt>
      <trkpt lat="48.4758" lon="6.08027">
        <ele>289</ele>
        <time>2024-01-18T12:32:48Z</time>
      </trkpt>
      <trkpt lat="48.47565" lon="6.08015">
        <ele>289</ele>
        <time>2024-01-18T12:32:51Z</time>
      </trkpt>
      <trkpt lat="48.47527" lon="6.08">
        <ele>290</ele>
        <time>2024-01-18T12:32:58Z</time>
      </trkpt>
      <trkpt lat="48.47505" lon="6.07994">
        <ele>291</ele>
        <time>2024-01-18T12:33:02Z</time>
      </trkpt>
      <trkpt lat="48.4739" lon="6.07973">
        <ele>292</ele>
        <time>2024-01-18T12:33:23Z</time>
      </trkpt>
      <trkpt lat="48.47317" lon="6.07952">
        <ele>291</ele>
        <time>2024-01-18T12:33:36Z</time>
      </trkpt>
      <trkpt lat="48.47237" lon="6.07924">
        <ele>293</ele>
        <time>2024-01-18T12:33:50Z</time>
      </trkpt>
      <trkpt lat="48.47212" lon="6.07907">
        <ele>293</ele>
        <time>2024-01-18T12:33:55Z</time>
      </trkpt>
      <trkpt lat="48.47015" lon="6.07715">
        <ele>294</ele>
        <time>2024-01-18T12:34:37Z</time>
      </trkpt>
      <trkpt lat="48.46988" lon="6.07696">
        <ele>294</ele>
        <time>2024-01-18T12:34:42Z</time>
      </trkpt>
      <trkpt lat="48.46854" lon="6.07656">
        <ele>295</ele>
        <time>2024-01-18T12:35:07Z</time>
      </trkpt>
      <trkpt lat="48.46673" lon="6.07606">
        <ele>297</ele>
        <time>2024-01-18T12:35:39Z</time>
      </trkpt>
      <trkpt lat="48.46602" lon="6.0759">
        <ele>299</ele>
        <time>2024-01-18T12:35:52Z</time>
      </trkpt>
      <trkpt lat="48.46588" lon="6.07623">
        <ele>297</ele>
        <time>2024-01-18T12:35:57Z</time>
      </trkpt>
      <trkpt lat="48.4657" lon="6.07651">
        <ele>297</ele>
        <time>2024-01-18T12:36:01Z</time>
      </trkpt>
      <trkpt lat="48.4655" lon="6.07672">
        <ele>297</ele>
        <time>2024-01-18T12:36:06Z</time>
      </trkpt>
      <trkpt lat="48.46518" lon="6.07699">
        <ele>299</ele>
        <time>2024-01-18T12:36:12Z</time>
      </trkpt>
      <trkpt lat="48.4649" lon="6.07739">
        <ele>299</ele>
        <time>2024-01-18T12:36:19Z</time>
      </trkpt>
      <trkpt lat="48.46477" lon="6.07771">
        <ele>298</ele>
        <time>2024-01-18T12:36:24Z</time>
      </trkpt>
      <trkpt lat="48.4646" lon="6.07825">
        <ele>297</ele>
        <time>2024-01-18T12:36:31Z</time>
      </trkpt>
      <trkpt lat="48.46462" lon="6.07838">
        <ele>296</ele>
        <time>2024-01-18T12:36:32Z</time>
      </trkpt>
      <trkpt lat="48.46459" lon="6.07902">
        <ele>296</ele>
        <time>2024-01-18T12:36:40Z</time>
      </trkpt>
      <trkpt lat="48.4646" lon="6.07942">
        <ele>295</ele>
        <time>2024-01-18T12:36:44Z</time>
      </trkpt>
      <trkpt lat="48.46469" lon="6.08003">
        <ele>295</ele>
        <time>2024-01-18T12:36:52Z</time>
      </trkpt>
      <trkpt lat="48.46473" lon="6.0806">
        <ele>295</ele>
        <time>2024-01-18T12:36:59Z</time>
      </trkpt>
      <trkpt lat="48.46478" lon="6.08087">
        <ele>295</ele>
        <time>2024-01-18T12:37:02Z</time>
      </trkpt>
      <trkpt lat="48.46486" lon="6.08108">
        <ele>295</ele>
        <time>2024-01-18T12:37:05Z</time>
      </trkpt>
      <trkpt lat="48.465" lon="6.08129">
        <ele>295</ele>
        <time>2024-01-18T12:37:08Z</time>
      </trkpt>
      <trkpt lat="48.46452" lon="6.08224">
        <ele>296</ele>
        <time>2024-01-18T12:37:22Z</time>
      </trkpt>
      <trkpt lat="48.46351" lon="6.08378">
        <ele>298</ele>
        <time>2024-01-18T12:37:48Z</time>
      </trkpt>
      <trkpt lat="48.46258" lon="6.08512">
        <ele>301</ele>
        <time>2024-01-18T12:38:11Z</time>
      </trkpt>
      <trkpt lat="48.46248" lon="6.08539">
        <ele>302</ele>
        <time>2024-01-18T12:38:14Z</time>
      </trkpt>
      <trkpt lat="48.46207" lon="6.0871">
        <ele>307</ele>
        <time>2024-01-18T12:38:36Z</time>
      </trkpt>
      <trkpt lat="48.46185" lon="6.0879">
        <ele>309</ele>
        <time>2024-01-18T12:38:46Z</time>
      </trkpt>
      <trkpt lat="48.46133" lon="6.08941">
        <ele>311</ele>
        <time>2024-01-18T12:39:06Z</time>
      </trkpt>
      <trkpt lat="48.4612" lon="6.08968">
        <ele>311</ele>
        <time>2024-01-18T12:39:10Z</time>
      </trkpt>
      <trkpt lat="48.46052" lon="6.09073">
        <ele>314</ele>
        <time>2024-01-18T12:39:27Z</time>
      </trkpt>
      <trkpt lat="48.46035" lon="6.09106">
        <ele>314</ele>
        <time>2024-01-18T12:39:32Z</time>
      </trkpt>
      <trkpt lat="48.46006" lon="6.0919">
        <ele>314</ele>
        <time>2024-01-18T12:39:44Z</time>
      </trkpt>
      <trkpt lat="48.45994" lon="6.09215">
        <ele>314</ele>
        <time>2024-01-18T12:39:47Z</time>
      </trkpt>
      <trkpt lat="48.45952" lon="6.09282">
        <ele>317</ele>
        <time>2024-01-18T12:39:58Z</time>
      </trkpt>
      <trkpt lat="48.45934" lon="6.09315">
        <ele>318</ele>
        <time>2024-01-18T12:40:03Z</time>
      </trkpt>
      <trkpt lat="48.45879" lon="6.09436">
        <ele>319</ele>
        <time>2024-01-18T12:40:20Z</time>
      </trkpt>
      <trkpt lat="48.45839" lon="6.09512">
        <ele>320</ele>
        <time>2024-01-18T12:40:32Z</time>
      </trkpt>
      <trkpt lat="48.45814" lon="6.0955">
        <ele>320</ele>
        <time>2024-01-18T12:40:38Z</time>
      </trkpt>
      <trkpt lat="48.4575" lon="6.09624">
        <ele>322</ele>
        <time>2024-01-18T12:40:53Z</time>
      </trkpt>
      <trkpt lat="48.45721" lon="6.09666">
        <ele>323</ele>
        <time>2024-01-18T12:41:00Z</time>
      </trkpt>
      <trkpt lat="48.45615" lon="6.0986">
        <ele>328</ele>
        <time>2024-01-18T12:41:29Z</time>
      </trkpt>
      <trkpt lat="48.4557" lon="6.09917">
        <ele>328</ele>
        <time>2024-01-18T12:41:40Z</time>
      </trkpt>
      <trkpt lat="48.45569" lon="6.09899">
        <ele>329</ele>
        <time>2024-01-18T12:41:42Z</time>
      </trkpt>
      <trkpt lat="48.45563" lon="6.0988">
        <ele>329</ele>
        <time>2024-01-18T12:41:44Z</time>
      </trkpt>
      <trkpt lat="48.45511" lon="6.09785">
        <ele>331</ele>
        <time>2024-01-18T12:41:59Z</time>
      </trkpt>
      <trkpt lat="48.45483" lon="6.09744">
        <ele>330</ele>
        <time>2024-01-18T12:42:06Z</time>
      </trkpt>
      <trkpt lat="48.4546" lon="6.09715">
        <ele>330</ele>
        <time>2024-01-18T12:42:11Z</time>
      </trkpt>
      <trkpt lat="48.45446" lon="6.09703">
        <ele>331</ele>
        <time>2024-01-18T12:42:14Z</time>
      </trkpt>
      <trkpt lat="48.45437" lon="6.09702">
        <ele>331</ele>
        <time>2024-01-18T12:42:16Z</time>
      </trkpt>
      <trkpt lat="48.45431" lon="6.09707">
        <ele>331</ele>
        <time>2024-01-18T12:42:17Z</time>
      </trkpt>
      <trkpt lat="48.45426" lon="6.09719">
        <ele>331</ele>
        <time>2024-01-18T12:42:19Z</time>
      </trkpt>
      <trkpt lat="48.45403" lon="6.09817">
        <ele>332</ele>
        <time>2024-01-18T12:42:31Z</time>
      </trkpt>
      <trkpt lat="48.45399" lon="6.09826">
        <ele>332</ele>
        <time>2024-01-18T12:42:32Z</time>
      </trkpt>
      <trkpt lat="48.45393" lon="6.09832">
        <ele>332</ele>
        <time>2024-01-18T12:42:33Z</time>
      </trkpt>
      <trkpt lat="48.45385" lon="6.09835">
        <ele>332</ele>
        <time>2024-01-18T12:42:35Z</time>
      </trkpt>
      <trkpt lat="48.45377" lon="6.09834">
        <ele>332</ele>
        <time>2024-01-18T12:42:36Z</time>
      </trkpt>
      <trkpt lat="48.45305" lon="6.09806">
        <ele>329</ele>
        <time>2024-01-18T12:42:50Z</time>
      </trkpt>
      <trkpt lat="48.45277" lon="6.098">
        <ele>329</ele>
        <time>2024-01-18T12:42:55Z</time>
      </trkpt>
      <trkpt lat="48.45254" lon="6.09802">
        <ele>329</ele>
        <time>2024-01-18T12:42:59Z</time>
      </trkpt>
      <trkpt lat="48.45129" lon="6.09832">
        <ele>329</ele>
        <time>2024-01-18T12:43:21Z</time>
      </trkpt>
      <trkpt lat="48.44796" lon="6.09903">
        <ele>322</ele>
        <time>2024-01-18T12:44:21Z</time>
      </trkpt>
      <trkpt lat="48.44762" lon="6.09919">
        <ele>322</ele>
        <time>2024-01-18T12:44:27Z</time>
      </trkpt>
      <trkpt lat="48.44742" lon="6.09933">
        <ele>322</ele>
        <time>2024-01-18T12:44:31Z</time>
      </trkpt>
      <trkpt lat="48.44659" lon="6.1002">
        <ele>324</ele>
        <time>2024-01-18T12:44:49Z</time>
      </trkpt>
      <trkpt lat="48.4463" lon="6.10047">
        <ele>323</ele>
        <time>2024-01-18T12:44:55Z</time>
      </trkpt>
      <trkpt lat="48.44551" lon="6.10095">
        <ele>325</ele>
        <time>2024-01-18T12:45:11Z</time>
      </trkpt>
      <trkpt lat="48.44462" lon="6.10155">
        <ele>325</ele>
        <time>2024-01-18T12:45:28Z</time>
      </trkpt>
      <trkpt lat="48.44429" lon="6.10171">
        <ele>325</ele>
        <time>2024-01-18T12:45:34Z</time>
      </trkpt>
      <trkpt lat="48.44399" lon="6.10179">
        <ele>325</ele>
        <time>2024-01-18T12:45:39Z</time>
      </trkpt>
      <trkpt lat="48.44358" lon="6.10186">
        <ele>324</ele>
        <time>2024-01-18T12:45:47Z</time>
      </trkpt>
      <trkpt lat="48.44188" lon="6.10189">
        <ele>321</ele>
        <time>2024-01-18T12:46:17Z</time>
      </trkpt>
      <trkpt lat="48.4404" lon="6.10215">
        <ele>316</ele>
        <time>2024-01-18T12:46:44Z</time>
      </trkpt>
      <trkpt lat="48.44007" lon="6.10226">
        <ele>316</ele>
        <time>2024-01-18T12:46:50Z</time>
      </trkpt>
      <trkpt lat="48.43946" lon="6.10265">
        <ele>314</ele>
        <time>2024-01-18T12:47:01Z</time>
      </trkpt>
      <trkpt lat="48.43915" lon="6.1028">
        <ele>312</ele>
        <time>2024-01-18T12:47:07Z</time>
      </trkpt>
      <trkpt lat="48.43871" lon="6.10297">
        <ele>311</ele>
        <time>2024-01-18T12:47:15Z</time>
      </trkpt>
      <trkpt lat="48.43843" lon="6.10298">
        <ele>310</ele>
        <time>2024-01-18T12:47:20Z</time>
      </trkpt>
      <trkpt lat="48.43808" lon="6.10284">
        <ele>310</ele>
        <time>2024-01-18T12:47:27Z</time>
      </trkpt>
      <trkpt lat="48.43768" lon="6.10258">
        <ele>310</ele>
        <time>2024-01-18T12:47:34Z</time>
      </trkpt>
      <trkpt lat="48.43758" lon="6.10255">
        <ele>310</ele>
        <time>2024-01-18T12:47:36Z</time>
      </trkpt>
      <trkpt lat="48.4375" lon="6.1024">
        <ele>310</ele>
        <time>2024-01-18T12:47:39Z</time>
      </trkpt>
      <trkpt lat="48.43717" lon="6.10196">
        <ele>311</ele>
        <time>2024-01-18T12:47:46Z</time>
      </trkpt>
      <trkpt lat="48.43698" lon="6.10176">
        <ele>311</ele>
        <time>2024-01-18T12:47:51Z</time>
      </trkpt>
      <trkpt lat="48.43681" lon="6.10163">
        <ele>311</ele>
        <time>2024-01-18T12:47:54Z</time>
      </trkpt>
      <trkpt lat="48.43659" lon="6.10152">
        <ele>311</ele>
        <time>2024-01-18T12:47:58Z</time>
      </trkpt>
      <trkpt lat="48.43648" lon="6.10151">
        <ele>312</ele>
        <time>2024-01-18T12:48:00Z</time>
      </trkpt>
      <trkpt lat="48.43639" lon="6.10153">
        <ele>312</ele>
        <time>2024-01-18T12:48:02Z</time>
      </trkpt>
      <trkpt lat="48.43584" lon="6.10174">
        <ele>312</ele>
        <time>2024-01-18T12:48:12Z</time>
      </trkpt>
      <trkpt lat="48.43574" lon="6.10176">
        <ele>312</ele>
        <time>2024-01-18T12:48:13Z</time>
      </trkpt>
      <trkpt lat="48.43562" lon="6.10174">
        <ele>312</ele>
        <time>2024-01-18T12:48:16Z</time>
      </trkpt>
      <trkpt lat="48.43549" lon="6.1016">
        <ele>312</ele>
        <time>2024-01-18T12:48:18Z</time>
      </trkpt>
      <trkpt lat="48.43494" lon="6.10076">
        <ele>312</ele>
        <time>2024-01-18T12:48:32Z</time>
      </trkpt>
      <trkpt lat="48.43471" lon="6.1005">
        <ele>313</ele>
        <time>2024-01-18T12:48:38Z</time>
      </trkpt>
      <trkpt lat="48.43421" lon="6.10159">
        <ele>312</ele>
        <time>2024-01-18T12:48:53Z</time>
      </trkpt>
      <trkpt lat="48.43411" lon="6.10168">
        <ele>312</ele>
        <time>2024-01-18T12:48:55Z</time>
      </trkpt>
      <trkpt lat="48.43406" lon="6.10154">
        <ele>313</ele>
        <time>2024-01-18T12:48:57Z</time>
      </trkpt>
      <trkpt lat="48.43282" lon="6.10027">
        <ele>319</ele>
        <time>2024-01-18T12:49:24Z</time>
      </trkpt>
      <trkpt lat="48.43123" lon="6.09855">
        <ele>329</ele>
        <time>2024-01-18T12:49:59Z</time>
      </trkpt>
      <trkpt lat="48.43106" lon="6.09842">
        <ele>330</ele>
        <time>2024-01-18T12:50:02Z</time>
      </trkpt>
      <trkpt lat="48.43084" lon="6.09837">
        <ele>331</ele>
        <time>2024-01-18T12:50:06Z</time>
      </trkpt>
      <trkpt lat="48.43043" lon="6.09835">
        <ele>333</ele>
        <time>2024-01-18T12:50:13Z</time>
      </trkpt>
      <trkpt lat="48.42986" lon="6.09849">
        <ele>334</ele>
        <time>2024-01-18T12:50:24Z</time>
      </trkpt>
      <trkpt lat="48.42898" lon="6.09826">
        <ele>336</ele>
        <time>2024-01-18T12:50:39Z</time>
      </trkpt>
      <trkpt lat="48.42798" lon="6.09754">
        <ele>342</ele>
        <time>2024-01-18T12:50:59Z</time>
      </trkpt>
      <trkpt lat="48.42581" lon="6.0968">
        <ele>354</ele>
        <time>2024-01-18T12:51:39Z</time>
      </trkpt>
      <trkpt lat="48.42201" lon="6.09537">
        <ele>352</ele>
        <time>2024-01-18T12:52:48Z</time>
      </trkpt>
      <trkpt lat="48.42146" lon="6.095">
        <ele>351</ele>
        <time>2024-01-18T12:52:59Z</time>
      </trkpt>
      <trkpt lat="48.42148" lon="6.09475">
        <ele>353</ele>
        <time>2024-01-18T12:53:02Z</time>
      </trkpt>
      <trkpt lat="48.42154" lon="6.09453">
        <ele>356</ele>
        <time>2024-01-18T12:53:05Z</time>
      </trkpt>
      <trkpt lat="48.42184" lon="6.09425">
        <ele>361</ele>
        <time>2024-01-18T12:53:11Z</time>
      </trkpt>
      <trkpt lat="48.42265" lon="6.09338">
        <ele>375</ele>
        <time>2024-01-18T12:53:29Z</time>
      </trkpt>
      <trkpt lat="48.42286" lon="6.09323">
        <ele>379</ele>
        <time>2024-01-18T12:53:33Z</time>
      </trkpt>
      <trkpt lat="48.42322" lon="6.09307">
        <ele>384</ele>
        <time>2024-01-18T12:53:40Z</time>
      </trkpt>
      <trkpt lat="48.42362" lon="6.09276">
        <ele>389</ele>
        <time>2024-01-18T12:53:48Z</time>
      </trkpt>
      <trkpt lat="48.42417" lon="6.09222">
        <ele>397</ele>
        <time>2024-01-18T12:53:59Z</time>
      </trkpt>
      <trkpt lat="48.42497" lon="6.09131">
        <ele>412</ele>
        <time>2024-01-18T12:54:17Z</time>
      </trkpt>
      <trkpt lat="48.42558" lon="6.09067">
        <ele>418</ele>
        <time>2024-01-18T12:54:30Z</time>
      </trkpt>
      <trkpt lat="48.42584" lon="6.0903">
        <ele>424</ele>
        <time>2024-01-18T12:54:37Z</time>
      </trkpt>
      <trkpt lat="48.42607" lon="6.0897">
        <ele>432</ele>
        <time>2024-01-18T12:54:45Z</time>
      </trkpt>
      <trkpt lat="48.42623" lon="6.089">
        <ele>444</ele>
        <time>2024-01-18T12:54:54Z</time>
      </trkpt>
      <trkpt lat="48.42642" lon="6.08837">
        <ele>454</ele>
        <time>2024-01-18T12:55:02Z</time>
      </trkpt>
      <trkpt lat="48.42679" lon="6.08764">
        <ele>462</ele>
        <time>2024-01-18T12:55:13Z</time>
      </trkpt>
      <trkpt lat="48.4273" lon="6.08679">
        <ele>465</ele>
        <time>2024-01-18T12:55:26Z</time>
      </trkpt>
      <trkpt lat="48.4276" lon="6.08653">
        <ele>464</ele>
        <time>2024-01-18T12:55:32Z</time>
      </trkpt>
      <trkpt lat="48.4282" lon="6.08593">
        <ele>468</ele>
        <time>2024-01-18T12:55:45Z</time>
      </trkpt>
      <trkpt lat="48.4283" lon="6.08574">
        <ele>469</ele>
        <time>2024-01-18T12:55:48Z</time>
      </trkpt>
      <trkpt lat="48.42834" lon="6.08557">
        <ele>470</ele>
        <time>2024-01-18T12:55:50Z</time>
      </trkpt>
      <trkpt lat="48.42835" lon="6.08518">
        <ele>471</ele>
        <time>2024-01-18T12:55:55Z</time>
      </trkpt>
      <trkpt lat="48.42833" lon="6.08508">
        <ele>471</ele>
        <time>2024-01-18T12:55:56Z</time>
      </trkpt>
      <trkpt lat="48.42796" lon="6.08518">
        <ele>473</ele>
        <time>2024-01-18T12:56:03Z</time>
      </trkpt>
      <trkpt lat="48.42732" lon="6.08508">
        <ele>478</ele>
        <time>2024-01-18T12:56:14Z</time>
      </trkpt>
      <trkpt lat="48.4268" lon="6.0849">
        <ele>481</ele>
        <time>2024-01-18T12:56:24Z</time>
      </trkpt>
      <trkpt lat="48.42587" lon="6.0838">
        <ele>480</ele>
        <time>2024-01-18T12:56:45Z</time>
      </trkpt>
      <trkpt lat="48.42528" lon="6.08329">
        <ele>480</ele>
        <time>2024-01-18T12:56:57Z</time>
      </trkpt>
      <trkpt lat="48.42359" lon="6.08201">
        <ele>479</ele>
        <time>2024-01-18T12:57:31Z</time>
      </trkpt>
      <trkpt lat="48.42153" lon="6.08073">
        <ele>489</ele>
        <time>2024-01-18T12:58:10Z</time>
      </trkpt>
      <trkpt lat="48.42085" lon="6.08039">
        <ele>490</ele>
        <time>2024-01-18T12:58:23Z</time>
      </trkpt>
      <trkpt lat="48.42048" lon="6.08033">
        <ele>491</ele>
        <time>2024-01-18T12:58:30Z</time>
      </trkpt>
      <trkpt lat="48.42004" lon="6.08041">
        <ele>492</ele>
        <time>2024-01-18T12:58:37Z</time>
      </trkpt>
      <trkpt lat="48.41959" lon="6.08031">
        <ele>494</ele>
        <time>2024-01-18T12:58:46Z</time>
      </trkpt>
      <trkpt lat="48.41888" lon="6.08">
        <ele>496</ele>
        <time>2024-01-18T12:58:59Z</time>
      </trkpt>
      <trkpt lat="48.41686" lon="6.07878">
        <ele>499</ele>
        <time>2024-01-18T12:59:37Z</time>
      </trkpt>
      <trkpt lat="48.4145" lon="6.07658">
        <ele>514</ele>
        <time>2024-01-18T13:00:27Z</time>
      </trkpt>
      <trkpt lat="48.4118" lon="6.0737">
        <ele>522</ele>
        <time>2024-01-18T13:01:26Z</time>
      </trkpt>
      <trkpt lat="48.41005" lon="6.07147">
        <ele>520</ele>
        <time>2024-01-18T13:02:06Z</time>
      </trkpt>
      <trkpt lat="48.40977" lon="6.07082">
        <ele>525</ele>
        <time>2024-01-18T13:02:16Z</time>
      </trkpt>
      <trkpt lat="48.40966" lon="6.07">
        <ele>525</ele>
        <time>2024-01-18T13:02:25Z</time>
      </trkpt>
      <trkpt lat="48.40961" lon="6.06917">
        <ele>524</ele>
        <time>2024-01-18T13:02:35Z</time>
      </trkpt>
      <trkpt lat="48.40962" lon="6.06756">
        <ele>520</ele>
        <time>2024-01-18T13:02:54Z</time>
      </trkpt>
      <trkpt lat="48.40964" lon="6.06731">
        <ele>520</ele>
        <time>2024-01-18T13:02:57Z</time>
      </trkpt>
      <trkpt lat="48.40973" lon="6.06701">
        <ele>521</ele>
        <time>2024-01-18T13:03:01Z</time>
      </trkpt>
      <trkpt lat="48.40988" lon="6.06688">
        <ele>524</ele>
        <time>2024-01-18T13:03:04Z</time>
      </trkpt>
      <trkpt lat="48.41009" lon="6.06687">
        <ele>526</ele>
        <time>2024-01-18T13:03:08Z</time>
      </trkpt>
      <trkpt lat="48.41107" lon="6.06704">
        <ele>519</ele>
        <time>2024-01-18T13:03:26Z</time>
      </trkpt>
      <trkpt lat="48.41184" lon="6.06714">
        <ele>514</ele>
        <time>2024-01-18T13:03:39Z</time>
      </trkpt>
      <trkpt lat="48.41201" lon="6.06713">
        <ele>511</ele>
        <time>2024-01-18T13:03:42Z</time>
      </trkpt>
      <trkpt lat="48.4121" lon="6.06708">
        <ele>511</ele>
        <time>2024-01-18T13:03:44Z</time>
      </trkpt>
      <trkpt lat="48.41219" lon="6.06699">
        <ele>511</ele>
        <time>2024-01-18T13:03:46Z</time>
      </trkpt>
      <trkpt lat="48.41228" lon="6.06684">
        <ele>512</ele>
        <time>2024-01-18T13:03:48Z</time>
      </trkpt>
      <trkpt lat="48.41259" lon="6.06601">
        <ele>511</ele>
        <time>2024-01-18T13:04:00Z</time>
      </trkpt>
      <trkpt lat="48.41289" lon="6.06497">
        <ele>507</ele>
        <time>2024-01-18T13:04:13Z</time>
      </trkpt>
      <trkpt lat="48.41324" lon="6.06313">
        <ele>514</ele>
        <time>2024-01-18T13:04:36Z</time>
      </trkpt>
      <trkpt lat="48.41352" lon="6.06211">
        <ele>513</ele>
        <time>2024-01-18T13:04:49Z</time>
      </trkpt>
      <trkpt lat="48.41408" lon="6.06077">
        <ele>513</ele>
        <time>2024-01-18T13:05:07Z</time>
      </trkpt>
      <trkpt lat="48.41446" lon="6.05995">
        <ele>511</ele>
        <time>2024-01-18T13:05:19Z</time>
      </trkpt>
      <trkpt lat="48.41464" lon="6.05966">
        <ele>509</ele>
        <time>2024-01-18T13:05:24Z</time>
      </trkpt>
      <trkpt lat="48.41495" lon="6.05927">
        <ele>506</ele>
        <time>2024-01-18T13:05:31Z</time>
      </trkpt>
      <trkpt lat="48.41509" lon="6.05901">
        <ele>504</ele>
        <time>2024-01-18T13:05:35Z</time>
      </trkpt>
      <trkpt lat="48.41525" lon="6.05857">
        <ele>502</ele>
        <time>2024-01-18T13:05:41Z</time>
      </trkpt>
      <trkpt lat="48.4153" lon="6.05816">
        <ele>500</ele>
        <time>2024-01-18T13:05:46Z</time>
      </trkpt>
      <trkpt lat="48.41525" lon="6.05754">
        <ele>499</ele>
        <time>2024-01-18T13:05:53Z</time>
      </trkpt>
      <trkpt lat="48.41528" lon="6.05733">
        <ele>498</ele>
        <time>2024-01-18T13:05:56Z</time>
      </trkpt>
      <trkpt lat="48.41531" lon="6.05727">
        <ele>497</ele>
        <time>2024-01-18T13:05:57Z</time>
      </trkpt>
      <trkpt lat="48.41602" lon="6.05669">
        <ele>494</ele>
        <time>2024-01-18T13:06:11Z</time>
      </trkpt>
      <trkpt lat="48.41607" lon="6.05673">
        <ele>493</ele>
        <time>2024-01-18T13:06:12Z</time>
      </trkpt>
      <trkpt lat="48.41616" lon="6.05668">
        <ele>493</ele>
        <time>2024-01-18T13:06:14Z</time>
      </trkpt>
      <trkpt lat="48.41643" lon="6.05676">
        <ele>493</ele>
        <time>2024-01-18T13:06:19Z</time>
      </trkpt>
      <trkpt lat="48.41654" lon="6.05682">
        <ele>492</ele>
        <time>2024-01-18T13:06:21Z</time>
      </trkpt>
      <trkpt lat="48.41685" lon="6.05689">
        <ele>489</ele>
        <time>2024-01-18T13:06:26Z</time>
      </trkpt>
      <trkpt lat="48.41722" lon="6.05708">
        <ele>483</ele>
        <time>2024-01-18T13:06:33Z</time>
      </trkpt>
      <trkpt lat="48.41741" lon="6.05681">
        <ele>482</ele>
        <time>2024-01-18T13:06:38Z</time>
      </trkpt>
      <trkpt lat="48.41763" lon="6.05658">
        <ele>479</ele>
        <time>2024-01-18T13:06:43Z</time>
      </trkpt>
      <trkpt lat="48.41779" lon="6.05635">
        <ele>476</ele>
        <time>2024-01-18T13:06:47Z</time>
      </trkpt>
      <trkpt lat="48.41788" lon="6.05614">
        <ele>474</ele>
        <time>2024-01-18T13:06:49Z</time>
      </trkpt>
      <trkpt lat="48.41809" lon="6.05533">
        <ele>474</ele>
        <time>2024-01-18T13:07:00Z</time>
      </trkpt>
      <trkpt lat="48.41818" lon="6.05511">
        <ele>474</ele>
        <time>2024-01-18T13:07:03Z</time>
      </trkpt>
      <trkpt lat="48.41857" lon="6.05447">
        <ele>468</ele>
        <time>2024-01-18T13:07:13Z</time>
      </trkpt>
      <trkpt lat="48.41867" lon="6.05423">
        <ele>466</ele>
        <time>2024-01-18T13:07:16Z</time>
      </trkpt>
      <trkpt lat="48.41878" lon="6.0536">
        <ele>463</ele>
        <time>2024-01-18T13:07:24Z</time>
      </trkpt>
      <trkpt lat="48.41875" lon="6.05282">
        <ele>459</ele>
        <time>2024-01-18T13:07:33Z</time>
      </trkpt>
      <trkpt lat="48.4187" lon="6.0526">
        <ele>459</ele>
        <time>2024-01-18T13:07:36Z</time>
      </trkpt>
      <trkpt lat="48.41861" lon="6.05238">
        <ele>457</ele>
        <time>2024-01-18T13:07:39Z</time>
      </trkpt>
      <trkpt lat="48.41828" lon="6.05172">
        <ele>448</ele>
        <time>2024-01-18T13:07:49Z</time>
      </trkpt>
      <trkpt lat="48.41831" lon="6.05156">
        <ele>444</ele>
        <time>2024-01-18T13:07:51Z</time>
      </trkpt>
      <trkpt lat="48.41837" lon="6.05153">
        <ele>443</ele>
        <time>2024-01-18T13:07:52Z</time>
      </trkpt>
      <trkpt lat="48.41848" lon="6.05154">
        <ele>442</ele>
        <time>2024-01-18T13:07:54Z</time>
      </trkpt>
      <trkpt lat="48.41926" lon="6.05189">
        <ele>437</ele>
        <time>2024-01-18T13:08:08Z</time>
      </trkpt>
      <trkpt lat="48.41942" lon="6.05202">
        <ele>436</ele>
        <time>2024-01-18T13:08:12Z</time>
      </trkpt>
      <trkpt lat="48.41959" lon="6.05221">
        <ele>435</ele>
        <time>2024-01-18T13:08:15Z</time>
      </trkpt>
      <trkpt lat="48.41986" lon="6.05267">
        <ele>434</ele>
        <time>2024-01-18T13:08:23Z</time>
      </trkpt>
      <trkpt lat="48.42028" lon="6.05353">
        <ele>430</ele>
        <time>2024-01-18T13:08:35Z</time>
      </trkpt>
      <trkpt lat="48.42044" lon="6.05333">
        <ele>427</ele>
        <time>2024-01-18T13:08:39Z</time>
      </trkpt>
      <trkpt lat="48.42099" lon="6.05226">
        <ele>411</ele>
        <time>2024-01-18T13:08:55Z</time>
      </trkpt>
      <trkpt lat="48.42296" lon="6.05009">
        <ele>383</ele>
        <time>2024-01-18T13:09:38Z</time>
      </trkpt>
      <trkpt lat="48.42319" lon="6.0498">
        <ele>380</ele>
        <time>2024-01-18T13:09:44Z</time>
      </trkpt>
      <trkpt lat="48.42332" lon="6.04958">
        <ele>378</ele>
        <time>2024-01-18T13:09:47Z</time>
      </trkpt>
      <trkpt lat="48.42384" lon="6.04851">
        <ele>371</ele>
        <time>2024-01-18T13:10:03Z</time>
      </trkpt>
      <trkpt lat="48.42401" lon="6.0482">
        <ele>368</ele>
        <time>2024-01-18T13:10:08Z</time>
      </trkpt>
      <trkpt lat="48.4242" lon="6.04795">
        <ele>366</ele>
        <time>2024-01-18T13:10:12Z</time>
      </trkpt>
      <trkpt lat="48.42449" lon="6.04774">
        <ele>363</ele>
        <time>2024-01-18T13:10:18Z</time>
      </trkpt>
      <trkpt lat="48.42613" lon="6.04709">
        <ele>358</ele>
        <time>2024-01-18T13:10:48Z</time>
      </trkpt>
      <trkpt lat="48.42646" lon="6.04692">
        <ele>358</ele>
        <time>2024-01-18T13:10:54Z</time>
      </trkpt>
      <trkpt lat="48.4279" lon="6.0459">
        <ele>357</ele>
        <time>2024-01-18T13:11:23Z</time>
      </trkpt>
      <trkpt lat="48.42834" lon="6.0453">
        <ele>358</ele>
        <time>2024-01-18T13:11:33Z</time>
      </trkpt>
      <trkpt lat="48.42879" lon="6.04448">
        <ele>359</ele>
        <time>2024-01-18T13:11:46Z</time>
      </trkpt>
      <trkpt lat="48.42899" lon="6.04404">
        <ele>358</ele>
        <time>2024-01-18T13:11:52Z</time>
      </trkpt>
      <trkpt lat="48.42925" lon="6.04366">
        <ele>356</ele>
        <time>2024-01-18T13:11:58Z</time>
      </trkpt>
      <trkpt lat="48.42974" lon="6.04312">
        <ele>352</ele>
        <time>2024-01-18T13:12:09Z</time>
      </trkpt>
      <trkpt lat="48.43029" lon="6.04267">
        <ele>352</ele>
        <time>2024-01-18T13:12:20Z</time>
      </trkpt>
      <trkpt lat="48.4308" lon="6.04192">
        <ele>356</ele>
        <time>2024-01-18T13:12:33Z</time>
      </trkpt>
      <trkpt lat="48.43087" lon="6.04169">
        <ele>357</ele>
        <time>2024-01-18T13:12:36Z</time>
      </trkpt>
      <trkpt lat="48.43091" lon="6.04134">
        <ele>357</ele>
        <time>2024-01-18T13:12:40Z</time>
      </trkpt>
      <trkpt lat="48.43093" lon="6.04055">
        <ele>357</ele>
        <time>2024-01-18T13:12:50Z</time>
      </trkpt>
      <trkpt lat="48.43093" lon="6.03834">
        <ele>356</ele>
        <time>2024-01-18T13:13:16Z</time>
      </trkpt>
      <trkpt lat="48.43088" lon="6.03727">
        <ele>355</ele>
        <time>2024-01-18T13:13:28Z</time>
      </trkpt>
      <trkpt lat="48.43081" lon="6.03642">
        <ele>354</ele>
        <time>2024-01-18T13:13:38Z</time>
      </trkpt>
      <trkpt lat="48.43081" lon="6.03558">
        <ele>351</ele>
        <time>2024-01-18T13:13:48Z</time>
      </trkpt>
      <trkpt lat="48.431" lon="6.03464">
        <ele>343</ele>
        <time>2024-01-18T13:14:00Z</time>
      </trkpt>
      <trkpt lat="48.43147" lon="6.0333">
        <ele>337</ele>
        <time>2024-01-18T13:14:18Z</time>
      </trkpt>
      <trkpt lat="48.43155" lon="6.03298">
        <ele>336</ele>
        <time>2024-01-18T13:14:22Z</time>
      </trkpt>
      <trkpt lat="48.43168" lon="6.03209">
        <ele>334</ele>
        <time>2024-01-18T13:14:33Z</time>
      </trkpt>
      <trkpt lat="48.43176" lon="6.03127">
        <ele>334</ele>
        <time>2024-01-18T13:14:42Z</time>
      </trkpt>
      <trkpt lat="48.43184" lon="6.03082">
        <ele>333</ele>
        <time>2024-01-18T13:14:48Z</time>
      </trkpt>
      <trkpt lat="48.43195" lon="6.03047">
        <ele>334</ele>
        <time>2024-01-18T13:14:52Z</time>
      </trkpt>
      <trkpt lat="48.43214" lon="6.03006">
        <ele>334</ele>
        <time>2024-01-18T13:14:58Z</time>
      </trkpt>
      <trkpt lat="48.43221" lon="6.02996">
        <ele>334</ele>
        <time>2024-01-18T13:15:00Z</time>
      </trkpt>
      <trkpt lat="48.43238" lon="6.0302">
        <ele>333</ele>
        <time>2024-01-18T13:15:04Z</time>
      </trkpt>
      <trkpt lat="48.43288" lon="6.03066">
        <ele>329</ele>
        <time>2024-01-18T13:15:15Z</time>
      </trkpt>
      <trkpt lat="48.43318" lon="6.0309">
        <ele>327</ele>
        <time>2024-01-18T13:15:21Z</time>
      </trkpt>
      <trkpt lat="48.43374" lon="6.03102">
        <ele>323</ele>
        <time>2024-01-18T13:15:31Z</time>
      </trkpt>
      <trkpt lat="48.43427" lon="6.03104">
        <ele>320</ele>
        <time>2024-01-18T13:15:40Z</time>
      </trkpt>
      <trkpt lat="48.4347" lon="6.03101">
        <ele>318</ele>
        <time>2024-01-18T13:15:48Z</time>
      </trkpt>
      <trkpt lat="48.43604" lon="6.03082">
        <ele>314</ele>
        <time>2024-01-18T13:16:12Z</time>
      </trkpt>
      <trkpt lat="48.4363" lon="6.03082">
        <ele>312</ele>
        <time>2024-01-18T13:16:16Z</time>
      </trkpt>
      <trkpt lat="48.43727" lon="6.03093">
        <ele>308</ele>
        <time>2024-01-18T13:16:34Z</time>
      </trkpt>
      <trkpt lat="48.43905" lon="6.03091">
        <ele>300</ele>
        <time>2024-01-18T13:17:05Z</time>
      </trkpt>
      <trkpt lat="48.43995" lon="6.03101">
        <ele>296</ele>
        <time>2024-01-18T13:17:21Z</time>
      </trkpt>
      <trkpt lat="48.4403" lon="6.03098">
        <ele>297</ele>
        <time>2024-01-18T13:17:28Z</time>
      </trkpt>
      <trkpt lat="48.44115" lon="6.03058">
        <ele>296</ele>
        <time>2024-01-18T13:17:44Z</time>
      </trkpt>
      <trkpt lat="48.44187" lon="6.03037">
        <ele>296</ele>
        <time>2024-01-18T13:17:57Z</time>
      </trkpt>
      <trkpt lat="48.44199" lon="6.03028">
        <ele>296</ele>
        <time>2024-01-18T13:17:59Z</time>
      </trkpt>
      <trkpt lat="48.44221" lon="6.02985">
        <ele>294</ele>
        <time>2024-01-18T13:18:05Z</time>
      </trkpt>
      <trkpt lat="48.44241" lon="6.02953">
        <ele>293</ele>
        <time>2024-01-18T13:18:11Z</time>
      </trkpt>
      <trkpt lat="48.44257" lon="6.02933">
        <ele>292</ele>
        <time>2024-01-18T13:18:14Z</time>
      </trkpt>
      <trkpt lat="48.44281" lon="6.02919">
        <ele>291</ele>
        <time>2024-01-18T13:18:19Z</time>
      </trkpt>
      <trkpt lat="48.44352" lon="6.02895">
        <ele>292</ele>
        <time>2024-01-18T13:18:32Z</time>
      </trkpt>
      <trkpt lat="48.44357" lon="6.02886">
        <ele>291</ele>
        <time>2024-01-18T13:18:33Z</time>
      </trkpt>
      <trkpt lat="48.44364" lon="6.02822">
        <ele>290</ele>
        <time>2024-01-18T13:18:41Z</time>
      </trkpt>
      <trkpt lat="48.44411" lon="6.02265">
        <ele>298</ele>
        <time>2024-01-18T13:19:47Z</time>
      </trkpt>
      <trkpt lat="48.44503" lon="6.016">
        <ele>313</ele>
        <time>2024-01-18T13:21:07Z</time>
      </trkpt>
      <trkpt lat="48.44515" lon="6.01559">
        <ele>312</ele>
        <time>2024-01-18T13:21:13Z</time>
      </trkpt>
      <trkpt lat="48.44652" lon="6.01223">
        <ele>310</ele>
        <time>2024-01-18T13:21:59Z</time>
      </trkpt>
      <trkpt lat="48.45113" lon="6.01482">
        <ele>305</ele>
        <time>2024-01-18T13:23:27Z</time>
      </trkpt>
      <trkpt lat="48.45259" lon="6.01528">
        <ele>296</ele>
        <time>2024-01-18T13:23:53Z</time>
      </trkpt>
      <trkpt lat="48.45593" lon="6.01598">
        <ele>290</ele>
        <time>2024-01-18T13:24:53Z</time>
      </trkpt>
      <trkpt lat="48.45642" lon="6.01605">
        <ele>293</ele>
        <time>2024-01-18T13:25:02Z</time>
      </trkpt>
      <trkpt lat="48.45696" lon="6.01607">
        <ele>296</ele>
        <time>2024-01-18T13:25:12Z</time>
      </trkpt>
      <trkpt lat="48.45814" lon="6.01595">
        <ele>300</ele>
        <time>2024-01-18T13:25:33Z</time>
      </trkpt>
      <trkpt lat="48.4585" lon="6.01578">
        <ele>301</ele>
        <time>2024-01-18T13:25:39Z</time>
      </trkpt>
      <trkpt lat="48.45861" lon="6.01575">
        <ele>302</ele>
        <time>2024-01-18T13:25:41Z</time>
      </trkpt>
      <trkpt lat="48.45875" lon="6.01577">
        <ele>302</ele>
        <time>2024-01-18T13:25:44Z</time>
      </trkpt>
      <trkpt lat="48.45902" lon="6.01588">
        <ele>303</ele>
        <time>2024-01-18T13:25:49Z</time>
      </trkpt>
      <trkpt lat="48.45917" lon="6.01588">
        <ele>303</ele>
        <time>2024-01-18T13:25:51Z</time>
      </trkpt>
      <trkpt lat="48.4593" lon="6.01585">
        <ele>303</ele>
        <time>2024-01-18T13:25:54Z</time>
      </trkpt>
      <trkpt lat="48.45946" lon="6.01576">
        <ele>303</ele>
        <time>2024-01-18T13:25:57Z</time>
      </trkpt>
      <trkpt lat="48.46022" lon="6.0152">
        <ele>302</ele>
        <time>2024-01-18T13:26:12Z</time>
      </trkpt>
      <trkpt lat="48.46078" lon="6.01476">
        <ele>301</ele>
        <time>2024-01-18T13:26:23Z</time>
      </trkpt>
      <trkpt lat="48.46093" lon="6.01458">
        <ele>300</ele>
        <time>2024-01-18T13:26:27Z</time>
      </trkpt>
      <trkpt lat="48.45989" lon="6.01184">
        <ele>299</ele>
        <time>2024-01-18T13:27:04Z</time>
      </trkpt>
      <trkpt lat="48.45898" lon="6.00978">
        <ele>298</ele>
        <time>2024-01-18T13:27:33Z</time>
      </trkpt>
      <trkpt lat="48.45862" lon="6.0089">
        <ele>297</ele>
        <time>2024-01-18T13:27:45Z</time>
      </trkpt>
      <trkpt lat="48.45755" lon="6.00597">
        <ele>298</ele>
        <time>2024-01-18T13:28:25Z</time>
      </trkpt>
      <trkpt lat="48.45683" lon="6.00372">
        <ele>296</ele>
        <time>2024-01-18T13:28:54Z</time>
      </trkpt>
      <trkpt lat="48.45444" lon="5.99874">
        <ele>296</ele>
        <time>2024-01-18T13:30:07Z</time>
      </trkpt>
      <trkpt lat="48.454" lon="5.99766">
        <ele>296</ele>
        <time>2024-01-18T13:30:22Z</time>
      </trkpt>
      <trkpt lat="48.4544" lon="5.99669">
        <ele>298</ele>
        <time>2024-01-18T13:30:35Z</time>
      </trkpt>
      <trkpt lat="48.45448" lon="5.99643">
        <ele>298</ele>
        <time>2024-01-18T13:30:38Z</time>
      </trkpt>
      <trkpt lat="48.45458" lon="5.99593">
        <ele>299</ele>
        <time>2024-01-18T13:30:45Z</time>
      </trkpt>
      <trkpt lat="48.4546" lon="5.9956">
        <ele>299</ele>
        <time>2024-01-18T13:30:49Z</time>
      </trkpt>
      <trkpt lat="48.45458" lon="5.99533">
        <ele>300</ele>
        <time>2024-01-18T13:30:52Z</time>
      </trkpt>
      <trkpt lat="48.45451" lon="5.99502">
        <ele>300</ele>
        <time>2024-01-18T13:30:56Z</time>
      </trkpt>
      <trkpt lat="48.45443" lon="5.99473">
        <ele>300</ele>
        <time>2024-01-18T13:30:59Z</time>
      </trkpt>
      <trkpt lat="48.45416" lon="5.99397">
        <ele>302</ele>
        <time>2024-01-18T13:31:09Z</time>
      </trkpt>
      <trkpt lat="48.45411" lon="5.99371">
        <ele>302</ele>
        <time>2024-01-18T13:31:13Z</time>
      </trkpt>
      <trkpt lat="48.45407" lon="5.99296">
        <ele>304</ele>
        <time>2024-01-18T13:31:22Z</time>
      </trkpt>
      <trkpt lat="48.4541" lon="5.99224">
        <ele>304</ele>
        <time>2024-01-18T13:31:30Z</time>
      </trkpt>
      <trkpt lat="48.45457" lon="5.98954">
        <ele>310</ele>
        <time>2024-01-18T13:32:03Z</time>
      </trkpt>
      <trkpt lat="48.45469" lon="5.98924">
        <ele>309</ele>
        <time>2024-01-18T13:32:07Z</time>
      </trkpt>
      <trkpt lat="48.45481" lon="5.9891">
        <ele>308</ele>
        <time>2024-01-18T13:32:10Z</time>
      </trkpt>
      <trkpt lat="48.45559" lon="5.98883">
        <ele>307</ele>
        <time>2024-01-18T13:32:24Z</time>
      </trkpt>
      <trkpt lat="48.45595" lon="5.98876">
        <ele>308</ele>
        <time>2024-01-18T13:32:31Z</time>
      </trkpt>
      <trkpt lat="48.45601" lon="5.98869">
        <ele>309</ele>
        <time>2024-01-18T13:32:32Z</time>
      </trkpt>
      <trkpt lat="48.45607" lon="5.98856">
        <ele>309</ele>
        <time>2024-01-18T13:32:34Z</time>
      </trkpt>
      <trkpt lat="48.45619" lon="5.98803">
        <ele>309</ele>
        <time>2024-01-18T13:32:40Z</time>
      </trkpt>
      <trkpt lat="48.45624" lon="5.98793">
        <ele>309</ele>
        <time>2024-01-18T13:32:42Z</time>
      </trkpt>
      <trkpt lat="48.45639" lon="5.98774">
        <ele>310</ele>
        <time>2024-01-18T13:32:45Z</time>
      </trkpt>
      <trkpt lat="48.45649" lon="5.98767">
        <ele>310</ele>
        <time>2024-01-18T13:32:47Z</time>
      </trkpt>
      <trkpt lat="48.45663" lon="5.98762">
        <ele>311</ele>
        <time>2024-01-18T13:32:50Z</time>
      </trkpt>
      <trkpt lat="48.45683" lon="5.98763">
        <ele>313</ele>
        <time>2024-01-18T13:32:53Z</time>
      </trkpt>
      <trkpt lat="48.45724" lon="5.98782">
        <ele>318</ele>
        <time>2024-01-18T13:33:01Z</time>
      </trkpt>
      <trkpt lat="48.45748" lon="5.98802">
        <ele>320</ele>
        <time>2024-01-18T13:33:06Z</time>
      </trkpt>
      <trkpt lat="48.45807" lon="5.98841">
        <ele>325</ele>
        <time>2024-01-18T13:33:17Z</time>
      </trkpt>
      <trkpt lat="48.45868" lon="5.98863">
        <ele>328</ele>
        <time>2024-01-18T13:33:29Z</time>
      </trkpt>
      <trkpt lat="48.45901" lon="5.98882">
        <ele>329</ele>
        <time>2024-01-18T13:33:35Z</time>
      </trkpt>
      <trkpt lat="48.45916" lon="5.98902">
        <ele>330</ele>
        <time>2024-01-18T13:33:38Z</time>
      </trkpt>
      <trkpt lat="48.4595" lon="5.98966">
        <ele>332</ele>
        <time>2024-01-18T13:33:48Z</time>
      </trkpt>
      <trkpt lat="48.45971" lon="5.98992">
        <ele>333</ele>
        <time>2024-01-18T13:33:53Z</time>
      </trkpt>
      <trkpt lat="48.46037" lon="5.99041">
        <ele>334</ele>
        <time>2024-01-18T13:34:06Z</time>
      </trkpt>
      <trkpt lat="48.46048" lon="5.99042">
        <ele>334</ele>
        <time>2024-01-18T13:34:08Z</time>
      </trkpt>
      <trkpt lat="48.46053" lon="5.99039">
        <ele>335</ele>
        <time>2024-01-18T13:34:09Z</time>
      </trkpt>
      <trkpt lat="48.46063" lon="5.99024">
        <ele>335</ele>
        <time>2024-01-18T13:34:11Z</time>
      </trkpt>
      <trkpt lat="48.46079" lon="5.98931">
        <ele>338</ele>
        <time>2024-01-18T13:34:23Z</time>
      </trkpt>
      <trkpt lat="48.46079" lon="5.98871">
        <ele>338</ele>
        <time>2024-01-18T13:34:30Z</time>
      </trkpt>
      <trkpt lat="48.4607" lon="5.98829">
        <ele>337</ele>
        <time>2024-01-18T13:34:35Z</time>
      </trkpt>
      <trkpt lat="48.46046" lon="5.98746">
        <ele>335</ele>
        <time>2024-01-18T13:34:46Z</time>
      </trkpt>
      <trkpt lat="48.46043" lon="5.98718">
        <ele>334</ele>
        <time>2024-01-18T13:34:49Z</time>
      </trkpt>
      <trkpt lat="48.46047" lon="5.98666">
        <ele>332</ele>
        <time>2024-01-18T13:34:55Z</time>
      </trkpt>
      <trkpt lat="48.46072" lon="5.98539">
        <ele>329</ele>
        <time>2024-01-18T13:35:11Z</time>
      </trkpt>
      <trkpt lat="48.46085" lon="5.98455">
        <ele>329</ele>
        <time>2024-01-18T13:35:21Z</time>
      </trkpt>
      <trkpt lat="48.461" lon="5.98406">
        <ele>330</ele>
        <time>2024-01-18T13:35:27Z</time>
      </trkpt>
      <trkpt lat="48.46182" lon="5.98177">
        <ele>337</ele>
        <time>2024-01-18T13:35:58Z</time>
      </trkpt>
      <trkpt lat="48.46202" lon="5.98113">
        <ele>337</ele>
        <time>2024-01-18T13:36:06Z</time>
      </trkpt>
      <trkpt lat="48.46213" lon="5.98068">
        <ele>337</ele>
        <time>2024-01-18T13:36:12Z</time>
      </trkpt>
      <trkpt lat="48.46216" lon="5.98012">
        <ele>335</ele>
        <time>2024-01-18T13:36:19Z</time>
      </trkpt>
      <trkpt lat="48.46199" lon="5.97902">
        <ele>332</ele>
        <time>2024-01-18T13:36:32Z</time>
      </trkpt>
      <trkpt lat="48.462" lon="5.97872">
        <ele>331</ele>
        <time>2024-01-18T13:36:36Z</time>
      </trkpt>
      <trkpt lat="48.46206" lon="5.97854">
        <ele>331</ele>
        <time>2024-01-18T13:36:38Z</time>
      </trkpt>
      <trkpt lat="48.46236" lon="5.97799">
        <ele>330</ele>
        <time>2024-01-18T13:36:46Z</time>
      </trkpt>
      <trkpt lat="48.46246" lon="5.97772">
        <ele>331</ele>
        <time>2024-01-18T13:36:50Z</time>
      </trkpt>
      <trkpt lat="48.46285" lon="5.97614">
        <ele>333</ele>
        <time>2024-01-18T13:37:10Z</time>
      </trkpt>
      <trkpt lat="48.46343" lon="5.9742">
        <ele>331</ele>
        <time>2024-01-18T13:37:35Z</time>
      </trkpt>
      <trkpt lat="48.46348" lon="5.97394">
        <ele>331</ele>
        <time>2024-01-18T13:37:38Z</time>
      </trkpt>
      <trkpt lat="48.46348" lon="5.97378">
        <ele>330</ele>
        <time>2024-01-18T13:37:40Z</time>
      </trkpt>
      <trkpt lat="48.46339" lon="5.97311">
        <ele>328</ele>
        <time>2024-01-18T13:37:48Z</time>
      </trkpt>
      <trkpt lat="48.46342" lon="5.97277">
        <ele>327</ele>
        <time>2024-01-18T13:37:52Z</time>
      </trkpt>
      <trkpt lat="48.46354" lon="5.97225">
        <ele>328</ele>
        <time>2024-01-18T13:37:59Z</time>
      </trkpt>
      <trkpt lat="48.46398" lon="5.97081">
        <ele>332</ele>
        <time>2024-01-18T13:38:17Z</time>
      </trkpt>
      <trkpt lat="48.4642" lon="5.96987">
        <ele>331</ele>
        <time>2024-01-18T13:38:29Z</time>
      </trkpt>
      <trkpt lat="48.46432" lon="5.96954">
        <ele>330</ele>
        <time>2024-01-18T13:38:34Z</time>
      </trkpt>
      <trkpt lat="48.4644" lon="5.96939">
        <ele>329</ele>
        <time>2024-01-18T13:38:36Z</time>
      </trkpt>
      <trkpt lat="48.46461" lon="5.96914">
        <ele>328</ele>
        <time>2024-01-18T13:38:41Z</time>
      </trkpt>
      <trkpt lat="48.46502" lon="5.96876">
        <ele>328</ele>
        <time>2024-01-18T13:38:49Z</time>
      </trkpt>
      <trkpt lat="48.46516" lon="5.96845">
        <ele>328</ele>
        <time>2024-01-18T13:38:54Z</time>
      </trkpt>
      <trkpt lat="48.46525" lon="5.96809">
        <ele>329</ele>
        <time>2024-01-18T13:38:58Z</time>
      </trkpt>
      <trkpt lat="48.46531" lon="5.96777">
        <ele>329</ele>
        <time>2024-01-18T13:39:02Z</time>
      </trkpt>
      <trkpt lat="48.46539" lon="5.96704">
        <ele>330</ele>
        <time>2024-01-18T13:39:11Z</time>
      </trkpt>
      <trkpt lat="48.46546" lon="5.96493">
        <ele>325</ele>
        <time>2024-01-18T13:39:36Z</time>
      </trkpt>
      <trkpt lat="48.46551" lon="5.96439">
        <ele>324</ele>
        <time>2024-01-18T13:39:42Z</time>
      </trkpt>
      <trkpt lat="48.46562" lon="5.9639">
        <ele>323</ele>
        <time>2024-01-18T13:39:48Z</time>
      </trkpt>
      <trkpt lat="48.46567" lon="5.96344">
        <ele>323</ele>
        <time>2024-01-18T13:39:54Z</time>
      </trkpt>
      <trkpt lat="48.46585" lon="5.96293">
        <ele>325</ele>
        <time>2024-01-18T13:40:01Z</time>
      </trkpt>
      <trkpt lat="48.46601" lon="5.96236">
        <ele>327</ele>
        <time>2024-01-18T13:40:08Z</time>
      </trkpt>
      <trkpt lat="48.46627" lon="5.96124">
        <ele>332</ele>
        <time>2024-01-18T13:40:22Z</time>
      </trkpt>
      <trkpt lat="48.46631" lon="5.96095">
        <ele>333</ele>
        <time>2024-01-18T13:40:25Z</time>
      </trkpt>
      <trkpt lat="48.46643" lon="5.95902">
        <ele>340</ele>
        <time>2024-01-18T13:40:48Z</time>
      </trkpt>
      <trkpt lat="48.46647" lon="5.95764">
        <ele>342</ele>
        <time>2024-01-18T13:41:05Z</time>
      </trkpt>
      <trkpt lat="48.46729" lon="5.95743">
        <ele>348</ele>
        <time>2024-01-18T13:41:19Z</time>
      </trkpt>
      <trkpt lat="48.46786" lon="5.95717">
        <ele>352</ele>
        <time>2024-01-18T13:41:30Z</time>
      </trkpt>
      <trkpt lat="48.46865" lon="5.95666">
        <ele>358</ele>
        <time>2024-01-18T13:41:45Z</time>
      </trkpt>
      <trkpt lat="48.4693" lon="5.95643">
        <ele>365</ele>
        <time>2024-01-18T13:41:57Z</time>
      </trkpt>
      <trkpt lat="48.46972" lon="5.95624">
        <ele>372</ele>
        <time>2024-01-18T13:42:05Z</time>
      </trkpt>
      <trkpt lat="48.4698" lon="5.95617">
        <ele>373</ele>
        <time>2024-01-18T13:42:07Z</time>
      </trkpt>
      <trkpt lat="48.46982" lon="5.95612">
        <ele>373</ele>
        <time>2024-01-18T13:42:07Z</time>
      </trkpt>
      <trkpt lat="48.46989" lon="5.95569">
        <ele>374</ele>
        <time>2024-01-18T13:42:13Z</time>
      </trkpt>
      <trkpt lat="48.46992" lon="5.95563">
        <ele>374</ele>
        <time>2024-01-18T13:42:13Z</time>
      </trkpt>
      <trkpt lat="48.47005" lon="5.95553">
        <ele>375</ele>
        <time>2024-01-18T13:42:16Z</time>
      </trkpt>
      <trkpt lat="48.47041" lon="5.95534">
        <ele>376</ele>
        <time>2024-01-18T13:42:23Z</time>
      </trkpt>
      <trkpt lat="48.47053" lon="5.95532">
        <ele>376</ele>
        <time>2024-01-18T13:42:25Z</time>
      </trkpt>
      <trkpt lat="48.47142" lon="5.95553">
        <ele>380</ele>
        <time>2024-01-18T13:42:41Z</time>
      </trkpt>
      <trkpt lat="48.47163" lon="5.95551">
        <ele>380</ele>
        <time>2024-01-18T13:42:45Z</time>
      </trkpt>
      <trkpt lat="48.4719" lon="5.95561">
        <ele>380</ele>
        <time>2024-01-18T13:42:50Z</time>
      </trkpt>
      <trkpt lat="48.47664" lon="5.95642">
        <ele>394</ele>
        <time>2024-01-18T13:44:15Z</time>
      </trkpt>
      <trkpt lat="48.48224" lon="5.95679">
        <ele>417</ele>
        <time>2024-01-18T13:45:54Z</time>
      </trkpt>
      <trkpt lat="48.48266" lon="5.95684">
        <ele>418</ele>
        <time>2024-01-18T13:46:02Z</time>
      </trkpt>
      <trkpt lat="48.48307" lon="5.95697">
        <ele>418</ele>
        <time>2024-01-18T13:46:09Z</time>
      </trkpt>
      <trkpt lat="48.48362" lon="5.9572">
        <ele>419</ele>
        <time>2024-01-18T13:46:19Z</time>
      </trkpt>
      <trkpt lat="48.48407" lon="5.95746">
        <ele>419</ele>
        <time>2024-01-18T13:46:28Z</time>
      </trkpt>
      <trkpt lat="48.48514" lon="5.95814">
        <ele>421</ele>
        <time>2024-01-18T13:46:49Z</time>
      </trkpt>
      <trkpt lat="48.48713" lon="5.95953">
        <ele>421</ele>
        <time>2024-01-18T13:47:28Z</time>
      </trkpt>
      <trkpt lat="48.48807" lon="5.96006">
        <ele>422</ele>
        <time>2024-01-18T13:47:46Z</time>
      </trkpt>
      <trkpt lat="48.48894" lon="5.96042">
        <ele>423</ele>
        <time>2024-01-18T13:48:02Z</time>
      </trkpt>
      <trkpt lat="48.48959" lon="5.96052">
        <ele>423</ele>
        <time>2024-01-18T13:48:13Z</time>
      </trkpt>
      <trkpt lat="48.4907" lon="5.96086">
        <ele>423</ele>
        <time>2024-01-18T13:48:33Z</time>
      </trkpt>
      <trkpt lat="48.49094" lon="5.96091">
        <ele>423</ele>
        <time>2024-01-18T13:48:38Z</time>
      </trkpt>
      <trkpt lat="48.49116" lon="5.96089">
        <ele>423</ele>
        <time>2024-01-18T13:48:42Z</time>
      </trkpt>
      <trkpt lat="48.49131" lon="5.96082">
        <ele>424</ele>
        <time>2024-01-18T13:48:44Z</time>
      </trkpt>
      <trkpt lat="48.49157" lon="5.96061">
        <ele>424</ele>
        <time>2024-01-18T13:48:50Z</time>
      </trkpt>
      <trkpt lat="48.49554" lon="5.95652">
        <ele>403</ele>
        <time>2024-01-18T13:50:15Z</time>
      </trkpt>
      <trkpt lat="48.49615" lon="5.95593">
        <ele>405</ele>
        <time>2024-01-18T13:50:28Z</time>
      </trkpt>
      <trkpt lat="48.49655" lon="5.95566">
        <ele>406</ele>
        <time>2024-01-18T13:50:36Z</time>
      </trkpt>
      <trkpt lat="48.49811" lon="5.95501">
        <ele>407</ele>
        <time>2024-01-18T13:51:05Z</time>
      </trkpt>
      <trkpt lat="48.49838" lon="5.95487">
        <ele>408</ele>
        <time>2024-01-18T13:51:10Z</time>
      </trkpt>
      <trkpt lat="48.50021" lon="5.95345">
        <ele>415</ele>
        <time>2024-01-18T13:51:46Z</time>
      </trkpt>
      <trkpt lat="48.50105" lon="5.95277">
        <ele>417</ele>
        <time>2024-01-18T13:52:03Z</time>
      </trkpt>
      <trkpt lat="48.50156" lon="5.95232">
        <ele>418</ele>
        <time>2024-01-18T13:52:14Z</time>
      </trkpt>
      <trkpt lat="48.50188" lon="5.95194">
        <ele>419</ele>
        <time>2024-01-18T13:52:21Z</time>
      </trkpt>
      <trkpt lat="48.5034" lon="5.94971">
        <ele>427</ele>
        <time>2024-01-18T13:52:59Z</time>
      </trkpt>
      <trkpt lat="48.50364" lon="5.94931">
        <ele>429</ele>
        <time>2024-01-18T13:53:05Z</time>
      </trkpt>
      <trkpt lat="48.50614" lon="5.94343">
        <ele>428</ele>
        <time>2024-01-18T13:54:27Z</time>
      </trkpt>
      <trkpt lat="48.50625" lon="5.94308">
        <ele>427</ele>
        <time>2024-01-18T13:54:32Z</time>
      </trkpt>
      <trkpt lat="48.50663" lon="5.94096">
        <ele>421</ele>
        <time>2024-01-18T13:54:58Z</time>
      </trkpt>
      <trkpt lat="48.50704" lon="5.93961">
        <ele>414</ele>
        <time>2024-01-18T13:55:15Z</time>
      </trkpt>
      <trkpt lat="48.50733" lon="5.9382">
        <ele>410</ele>
        <time>2024-01-18T13:55:33Z</time>
      </trkpt>
      <trkpt lat="48.50745" lon="5.93742">
        <ele>408</ele>
        <time>2024-01-18T13:55:42Z</time>
      </trkpt>
      <trkpt lat="48.50777" lon="5.93373">
        <ele>394</ele>
        <time>2024-01-18T13:56:26Z</time>
      </trkpt>
      <trkpt lat="48.50786" lon="5.93323">
        <ele>393</ele>
        <time>2024-01-18T13:56:32Z</time>
      </trkpt>
      <trkpt lat="48.5082" lon="5.93217">
        <ele>391</ele>
        <time>2024-01-18T13:56:46Z</time>
      </trkpt>
      <trkpt lat="48.50852" lon="5.93151">
        <ele>389</ele>
        <time>2024-01-18T13:56:56Z</time>
      </trkpt>
      <trkpt lat="48.50877" lon="5.93108">
        <ele>388</ele>
        <time>2024-01-18T13:57:03Z</time>
      </trkpt>
      <trkpt lat="48.5117" lon="5.92699">
        <ele>377</ele>
        <time>2024-01-18T13:58:14Z</time>
      </trkpt>
      <trkpt lat="48.51291" lon="5.9247">
        <ele>379</ele>
        <time>2024-01-18T13:58:48Z</time>
      </trkpt>
      <trkpt lat="48.514" lon="5.92236">
        <ele>381</ele>
        <time>2024-01-18T13:59:22Z</time>
      </trkpt>
      <trkpt lat="48.51433" lon="5.92158">
        <ele>382</ele>
        <time>2024-01-18T13:59:33Z</time>
      </trkpt>
      <trkpt lat="48.51487" lon="5.92009">
        <ele>383</ele>
        <time>2024-01-18T13:59:53Z</time>
      </trkpt>
      <trkpt lat="48.5152" lon="5.91932">
        <ele>380</ele>
        <time>2024-01-18T14:00:04Z</time>
      </trkpt>
      <trkpt lat="48.51748" lon="5.91475">
        <ele>362</ele>
        <time>2024-01-18T14:01:11Z</time>
      </trkpt>
      <trkpt lat="48.51781" lon="5.91416">
        <ele>359</ele>
        <time>2024-01-18T14:01:20Z</time>
      </trkpt>
      <trkpt lat="48.5192" lon="5.91195">
        <ele>352</ele>
        <time>2024-01-18T14:01:56Z</time>
      </trkpt>
      <trkpt lat="48.5196" lon="5.91125">
        <ele>350</ele>
        <time>2024-01-18T14:02:07Z</time>
      </trkpt>
      <trkpt lat="48.51994" lon="5.91052">
        <ele>349</ele>
        <time>2024-01-18T14:02:17Z</time>
      </trkpt>
      <trkpt lat="48.52014" lon="5.90999">
        <ele>348</ele>
        <time>2024-01-18T14:02:25Z</time>
      </trkpt>
      <trkpt lat="48.52092" lon="5.90761">
        <ele>348</ele>
        <time>2024-01-18T14:02:56Z</time>
      </trkpt>
      <trkpt lat="48.52103" lon="5.90737">
        <ele>348</ele>
        <time>2024-01-18T14:02:59Z</time>
      </trkpt>
      <trkpt lat="48.52123" lon="5.90703">
        <ele>347</ele>
        <time>2024-01-18T14:03:05Z</time>
      </trkpt>
      <trkpt lat="48.52155" lon="5.90661">
        <ele>347</ele>
        <time>2024-01-18T14:03:12Z</time>
      </trkpt>
      <trkpt lat="48.52184" lon="5.90633">
        <ele>346</ele>
        <time>2024-01-18T14:03:18Z</time>
      </trkpt>
      <trkpt lat="48.52484" lon="5.90379">
        <ele>342</ele>
        <time>2024-01-18T14:04:20Z</time>
      </trkpt>
      <trkpt lat="48.52542" lon="5.90328">
        <ele>342</ele>
        <time>2024-01-18T14:04:31Z</time>
      </trkpt>
      <trkpt lat="48.5256" lon="5.90309">
        <ele>342</ele>
        <time>2024-01-18T14:04:35Z</time>
      </trkpt>
      <trkpt lat="48.526" lon="5.90251">
        <ele>341</ele>
        <time>2024-01-18T14:04:45Z</time>
      </trkpt>
      <trkpt lat="48.52624" lon="5.90209">
        <ele>341</ele>
        <time>2024-01-18T14:04:52Z</time>
      </trkpt>
      <trkpt lat="48.52695" lon="5.90067">
        <ele>337</ele>
        <time>2024-01-18T14:05:13Z</time>
      </trkpt>
      <trkpt lat="48.52706" lon="5.90058">
        <ele>337</ele>
        <time>2024-01-18T14:05:15Z</time>
      </trkpt>
      <trkpt lat="48.52763" lon="5.89876">
        <ele>330</ele>
        <time>2024-01-18T14:05:39Z</time>
      </trkpt>
      <trkpt lat="48.5281" lon="5.89735">
        <ele>324</ele>
        <time>2024-01-18T14:05:57Z</time>
      </trkpt>
      <trkpt lat="48.52814" lon="5.89711">
        <ele>324</ele>
        <time>2024-01-18T14:06:00Z</time>
      </trkpt>
      <trkpt lat="48.52818" lon="5.89709">
        <ele>324</ele>
        <time>2024-01-18T14:06:01Z</time>
      </trkpt>
      <trkpt lat="48.52811" lon="5.89667">
        <ele>323</ele>
        <time>2024-01-18T14:06:06Z</time>
      </trkpt>
      <trkpt lat="48.52773" lon="5.89604">
        <ele>319</ele>
        <time>2024-01-18T14:06:16Z</time>
      </trkpt>
      <trkpt lat="48.5277" lon="5.89593">
        <ele>318</ele>
        <time>2024-01-18T14:06:18Z</time>
      </trkpt>
      <trkpt lat="48.52773" lon="5.89578">
        <ele>317</ele>
        <time>2024-01-18T14:06:19Z</time>
      </trkpt>
      <trkpt lat="48.52787" lon="5.8954">
        <ele>315</ele>
        <time>2024-01-18T14:06:24Z</time>
      </trkpt>
      <trkpt lat="48.52915" lon="5.89275">
        <ele>309</ele>
        <time>2024-01-18T14:07:03Z</time>
      </trkpt>
      <trkpt lat="48.52923" lon="5.89245">
        <ele>309</ele>
        <time>2024-01-18T14:07:07Z</time>
      </trkpt>
      <trkpt lat="48.52938" lon="5.89136">
        <ele>307</ele>
        <time>2024-01-18T14:07:20Z</time>
      </trkpt>
      <trkpt lat="48.5339" lon="5.84253">
        <ele>283</ele>
        <time>2024-01-18T14:17:01Z</time>
      </trkpt>
      <trkpt lat="48.53391" lon="5.84216">
        <ele>283</ele>
        <time>2024-01-18T14:17:05Z</time>
      </trkpt>
      <trkpt lat="48.53382" lon="5.84182">
        <ele>283</ele>
        <time>2024-01-18T14:17:10Z</time>
      </trkpt>
      <trkpt lat="48.53334" lon="5.84085">
        <ele>282</ele>
        <time>2024-01-18T14:17:24Z</time>
      </trkpt>
      <trkpt lat="48.53323" lon="5.84042">
        <ele>281</ele>
        <time>2024-01-18T14:17:29Z</time>
      </trkpt>
      <trkpt lat="48.53327" lon="5.84009">
        <ele>279</ele>
        <time>2024-01-18T14:17:33Z</time>
      </trkpt>
      <trkpt lat="48.53356" lon="5.83921">
        <ele>278</ele>
        <time>2024-01-18T14:17:45Z</time>
      </trkpt>
      <trkpt lat="48.53359" lon="5.83923">
        <ele>278</ele>
        <time>2024-01-18T14:17:45Z</time>
      </trkpt>
      <trkpt lat="48.5339" lon="5.83922">
        <ele>278</ele>
        <time>2024-01-18T14:17:51Z</time>
      </trkpt>
      <trkpt lat="48.53409" lon="5.83931">
        <ele>277</ele>
        <time>2024-01-18T14:17:55Z</time>
      </trkpt>
      <trkpt lat="48.53422" lon="5.83944">
        <ele>277</ele>
        <time>2024-01-18T14:17:57Z</time>
      </trkpt>
      <trkpt lat="48.53435" lon="5.83983">
        <ele>277</ele>
        <time>2024-01-18T14:18:02Z</time>
      </trkpt>
      <trkpt lat="48.53448" lon="5.84001">
        <ele>277</ele>
        <time>2024-01-18T14:18:06Z</time>
      </trkpt>
      <trkpt lat="48.5346" lon="5.84013">
        <ele>277</ele>
        <time>2024-01-18T14:18:08Z</time>
      </trkpt>
      <trkpt lat="48.53509" lon="5.84046">
        <ele>276</ele>
        <time>2024-01-18T14:18:18Z</time>
      </trkpt>
      <trkpt lat="48.53816" lon="5.8428">
        <ele>275</ele>
        <time>2024-01-18T14:19:19Z</time>
      </trkpt>
      <trkpt lat="48.53841" lon="5.84295">
        <ele>275</ele>
        <time>2024-01-18T14:19:24Z</time>
      </trkpt>
      <trkpt lat="48.53882" lon="5.84308">
        <ele>276</ele>
        <time>2024-01-18T14:19:31Z</time>
      </trkpt>
      <trkpt lat="48.53973" lon="5.84316">
        <ele>277</ele>
        <time>2024-01-18T14:19:47Z</time>
      </trkpt>
      <trkpt lat="48.53999" lon="5.84324">
        <ele>277</ele>
        <time>2024-01-18T14:19:52Z</time>
      </trkpt>
      <trkpt lat="48.54071" lon="5.84376">
        <ele>279</ele>
        <time>2024-01-18T14:20:06Z</time>
      </trkpt>
      <trkpt lat="48.54088" lon="5.84384">
        <ele>279</ele>
        <time>2024-01-18T14:20:09Z</time>
      </trkpt>
      <trkpt lat="48.54101" lon="5.84383">
        <ele>279</ele>
        <time>2024-01-18T14:20:12Z</time>
      </trkpt>
      <trkpt lat="48.54122" lon="5.84369">
        <ele>279</ele>
        <time>2024-01-18T14:20:16Z</time>
      </trkpt>
      <trkpt lat="48.54129" lon="5.8436">
        <ele>279</ele>
        <time>2024-01-18T14:20:17Z</time>
      </trkpt>
      <trkpt lat="48.54169" lon="5.84271">
        <ele>282</ele>
        <time>2024-01-18T14:20:30Z</time>
      </trkpt>
      <trkpt lat="48.54197" lon="5.84223">
        <ele>284</ele>
        <time>2024-01-18T14:20:38Z</time>
      </trkpt>
      <trkpt lat="48.54202" lon="5.8422">
        <ele>284</ele>
        <time>2024-01-18T14:20:39Z</time>
      </trkpt>
      <trkpt lat="48.54214" lon="5.8422">
        <ele>284</ele>
        <time>2024-01-18T14:20:41Z</time>
      </trkpt>
      <trkpt lat="48.5426" lon="5.84236">
        <ele>285</ele>
        <time>2024-01-18T14:20:49Z</time>
      </trkpt>
      <trkpt lat="48.54299" lon="5.84241">
        <ele>287</ele>
        <time>2024-01-18T14:20:56Z</time>
      </trkpt>
      <trkpt lat="48.54329" lon="5.8424">
        <ele>289</ele>
        <time>2024-01-18T14:21:01Z</time>
      </trkpt>
      <trkpt lat="48.54356" lon="5.84244">
        <ele>290</ele>
        <time>2024-01-18T14:21:06Z</time>
      </trkpt>
      <trkpt lat="48.54385" lon="5.84258">
        <ele>290</ele>
        <time>2024-01-18T14:21:12Z</time>
      </trkpt>
      <trkpt lat="48.54569" lon="5.84363">
        <ele>285</ele>
        <time>2024-01-18T14:21:47Z</time>
      </trkpt>
      <trkpt lat="48.5462" lon="5.84381">
        <ele>284</ele>
        <time>2024-01-18T14:21:56Z</time>
      </trkpt>
      <trkpt lat="48.54693" lon="5.84381">
        <ele>283</ele>
        <time>2024-01-18T14:22:09Z</time>
      </trkpt>
      <trkpt lat="48.54708" lon="5.84385">
        <ele>282</ele>
        <time>2024-01-18T14:22:12Z</time>
      </trkpt>
      <trkpt lat="48.54718" lon="5.84392">
        <ele>282</ele>
        <time>2024-01-18T14:22:14Z</time>
      </trkpt>
      <trkpt lat="48.54731" lon="5.84406">
        <ele>281</ele>
        <time>2024-01-18T14:22:17Z</time>
      </trkpt>
      <trkpt lat="48.54773" lon="5.84467">
        <ele>278</ele>
        <time>2024-01-18T14:22:27Z</time>
      </trkpt>
      <trkpt lat="48.54783" lon="5.84479">
        <ele>277</ele>
        <time>2024-01-18T14:22:29Z</time>
      </trkpt>
      <trkpt lat="48.548" lon="5.84493">
        <ele>276</ele>
        <time>2024-01-18T14:22:33Z</time>
      </trkpt>
      <trkpt lat="48.54821" lon="5.84504">
        <ele>275</ele>
        <time>2024-01-18T14:22:37Z</time>
      </trkpt>
      <trkpt lat="48.55019" lon="5.84575">
        <ele>274</ele>
        <time>2024-01-18T14:23:13Z</time>
      </trkpt>
      <trkpt lat="48.55188" lon="5.84662">
        <ele>279</ele>
        <time>2024-01-18T14:23:45Z</time>
      </trkpt>
      <trkpt lat="48.55261" lon="5.84694">
        <ele>280</ele>
        <time>2024-01-18T14:23:58Z</time>
      </trkpt>
      <trkpt lat="48.55319" lon="5.84732">
        <ele>282</ele>
        <time>2024-01-18T14:24:09Z</time>
      </trkpt>
      <trkpt lat="48.55436" lon="5.84833">
        <ele>287</ele>
        <time>2024-01-18T14:24:33Z</time>
      </trkpt>
      <trkpt lat="48.55503" lon="5.8487">
        <ele>287</ele>
        <time>2024-01-18T14:24:46Z</time>
      </trkpt>
      <trkpt lat="48.55587" lon="5.84899">
        <ele>285</ele>
        <time>2024-01-18T14:25:01Z</time>
      </trkpt>
      <trkpt lat="48.55703" lon="5.8493">
        <ele>287</ele>
        <time>2024-01-18T14:25:22Z</time>
      </trkpt>
      <trkpt lat="48.55722" lon="5.84929">
        <ele>289</ele>
        <time>2024-01-18T14:25:26Z</time>
      </trkpt>
      <trkpt lat="48.55765" lon="5.8492">
        <ele>291</ele>
        <time>2024-01-18T14:25:33Z</time>
      </trkpt>
      <trkpt lat="48.55791" lon="5.84919">
        <ele>290</ele>
        <time>2024-01-18T14:25:38Z</time>
      </trkpt>
      <trkpt lat="48.55803" lon="5.84923">
        <ele>289</ele>
        <time>2024-01-18T14:25:40Z</time>
      </trkpt>
      <trkpt lat="48.55811" lon="5.84929">
        <ele>289</ele>
        <time>2024-01-18T14:25:42Z</time>
      </trkpt>
      <trkpt lat="48.55863" lon="5.84986">
        <ele>284</ele>
        <time>2024-01-18T14:25:53Z</time>
      </trkpt>
      <trkpt lat="48.55922" lon="5.85033">
        <ele>277</ele>
        <time>2024-01-18T14:26:05Z</time>
      </trkpt>
      <trkpt lat="48.56039" lon="5.85104">
        <ele>273</ele>
        <time>2024-01-18T14:26:28Z</time>
      </trkpt>
      <trkpt lat="48.56175" lon="5.85169">
        <ele>273</ele>
        <time>2024-01-18T14:26:53Z</time>
      </trkpt>
      <trkpt lat="48.56216" lon="5.85183">
        <ele>274</ele>
        <time>2024-01-18T14:27:00Z</time>
      </trkpt>
      <trkpt lat="48.56261" lon="5.85195">
        <ele>275</ele>
        <time>2024-01-18T14:27:09Z</time>
      </trkpt>
      <trkpt lat="48.563" lon="5.85202">
        <ele>276</ele>
        <time>2024-01-18T14:27:16Z</time>
      </trkpt>
      <trkpt lat="48.56397" lon="5.85201">
        <ele>279</ele>
        <time>2024-01-18T14:27:33Z</time>
      </trkpt>
      <trkpt lat="48.56425" lon="5.85219">
        <ele>279</ele>
        <time>2024-01-18T14:27:38Z</time>
      </trkpt>
      <trkpt lat="48.56512" lon="5.85307">
        <ele>280</ele>
        <time>2024-01-18T14:27:57Z</time>
      </trkpt>
      <trkpt lat="48.56553" lon="5.85338">
        <ele>279</ele>
        <time>2024-01-18T14:28:05Z</time>
      </trkpt>
      <trkpt lat="48.56578" lon="5.8535">
        <ele>279</ele>
        <time>2024-01-18T14:28:10Z</time>
      </trkpt>
      <trkpt lat="48.56649" lon="5.8537">
        <ele>277</ele>
        <time>2024-01-18T14:28:22Z</time>
      </trkpt>
      <trkpt lat="48.56685" lon="5.85376">
        <ele>276</ele>
        <time>2024-01-18T14:28:29Z</time>
      </trkpt>
      <trkpt lat="48.56706" lon="5.85377">
        <ele>276</ele>
        <time>2024-01-18T14:28:33Z</time>
      </trkpt>
      <trkpt lat="48.56742" lon="5.85375">
        <ele>276</ele>
        <time>2024-01-18T14:28:39Z</time>
      </trkpt>
      <trkpt lat="48.56781" lon="5.85369">
        <ele>276</ele>
        <time>2024-01-18T14:28:46Z</time>
      </trkpt>
      <trkpt lat="48.56805" lon="5.85369">
        <ele>276</ele>
        <time>2024-01-18T14:28:50Z</time>
      </trkpt>
      <trkpt lat="48.56844" lon="5.85374">
        <ele>276</ele>
        <time>2024-01-18T14:28:57Z</time>
      </trkpt>
      <trkpt lat="48.56875" lon="5.85386">
        <ele>276</ele>
        <time>2024-01-18T14:29:03Z</time>
      </trkpt>
      <trkpt lat="48.56956" lon="5.85428">
        <ele>278</ele>
        <time>2024-01-18T14:29:18Z</time>
      </trkpt>
      <trkpt lat="48.57006" lon="5.85449">
        <ele>282</ele>
        <time>2024-01-18T14:29:27Z</time>
      </trkpt>
      <trkpt lat="48.57039" lon="5.85456">
        <ele>283</ele>
        <time>2024-01-18T14:29:33Z</time>
      </trkpt>
      <trkpt lat="48.57085" lon="5.85457">
        <ele>286</ele>
        <time>2024-01-18T14:29:42Z</time>
      </trkpt>
      <trkpt lat="48.57195" lon="5.85421">
        <ele>287</ele>
        <time>2024-01-18T14:30:02Z</time>
      </trkpt>
      <trkpt lat="48.57229" lon="5.85407">
        <ele>286</ele>
        <time>2024-01-18T14:30:08Z</time>
      </trkpt>
      <trkpt lat="48.57253" lon="5.85394">
        <ele>286</ele>
        <time>2024-01-18T14:30:12Z</time>
      </trkpt>
      <trkpt lat="48.573" lon="5.85361">
        <ele>285</ele>
        <time>2024-01-18T14:30:22Z</time>
      </trkpt>
      <trkpt lat="48.5733" lon="5.85332">
        <ele>285</ele>
        <time>2024-01-18T14:30:28Z</time>
      </trkpt>
      <trkpt lat="48.57368" lon="5.85289">
        <ele>286</ele>
        <time>2024-01-18T14:30:36Z</time>
      </trkpt>
      <trkpt lat="48.57378" lon="5.8528">
        <ele>286</ele>
        <time>2024-01-18T14:30:38Z</time>
      </trkpt>
      <trkpt lat="48.57399" lon="5.85268">
        <ele>286</ele>
        <time>2024-01-18T14:30:42Z</time>
      </trkpt>
      <trkpt lat="48.57415" lon="5.85261">
        <ele>286</ele>
        <time>2024-01-18T14:30:45Z</time>
      </trkpt>
      <trkpt lat="48.57531" lon="5.85241">
        <ele>288</ele>
        <time>2024-01-18T14:31:06Z</time>
      </trkpt>
      <trkpt lat="48.57553" lon="5.85224">
        <ele>288</ele>
        <time>2024-01-18T14:31:11Z</time>
      </trkpt>
      <trkpt lat="48.5756" lon="5.85214">
        <ele>289</ele>
        <time>2024-01-18T14:31:12Z</time>
      </trkpt>
      <trkpt lat="48.57577" lon="5.85172">
        <ele>291</ele>
        <time>2024-01-18T14:31:18Z</time>
      </trkpt>
      <trkpt lat="48.57633" lon="5.85133">
        <ele>291</ele>
        <time>2024-01-18T14:31:29Z</time>
      </trkpt>
      <trkpt lat="48.57638" lon="5.85126">
        <ele>291</ele>
        <time>2024-01-18T14:31:30Z</time>
      </trkpt>
      <trkpt lat="48.57653" lon="5.85086">
        <ele>292</ele>
        <time>2024-01-18T14:31:36Z</time>
      </trkpt>
      <trkpt lat="48.57695" lon="5.85059">
        <ele>293</ele>
        <time>2024-01-18T14:31:44Z</time>
      </trkpt>
      <trkpt lat="48.57719" lon="5.85058">
        <ele>293</ele>
        <time>2024-01-18T14:31:48Z</time>
      </trkpt>
      <trkpt lat="48.57809" lon="5.85092">
        <ele>292</ele>
        <time>2024-01-18T14:32:05Z</time>
      </trkpt>
      <trkpt lat="48.57827" lon="5.85106">
        <ele>291</ele>
        <time>2024-01-18T14:32:08Z</time>
      </trkpt>
      <trkpt lat="48.57876" lon="5.85159">
        <ele>283</ele>
        <time>2024-01-18T14:32:19Z</time>
      </trkpt>
      <trkpt lat="48.57933" lon="5.85202">
        <ele>277</ele>
        <time>2024-01-18T14:32:30Z</time>
      </trkpt>
      <trkpt lat="48.58097" lon="5.85292">
        <ele>271</ele>
        <time>2024-01-18T14:33:01Z</time>
      </trkpt>
      <trkpt lat="48.58122" lon="5.85308">
        <ele>271</ele>
        <time>2024-01-18T14:33:06Z</time>
      </trkpt>
      <trkpt lat="48.58137" lon="5.85324">
        <ele>271</ele>
        <time>2024-01-18T14:33:09Z</time>
      </trkpt>
      <trkpt lat="48.58149" lon="5.85352">
        <ele>270</ele>
        <time>2024-01-18T14:33:13Z</time>
      </trkpt>
      <trkpt lat="48.58212" lon="5.8558">
        <ele>265</ele>
        <time>2024-01-18T14:33:42Z</time>
      </trkpt>
      <trkpt lat="48.58219" lon="5.85596">
        <ele>264</ele>
        <time>2024-01-18T14:33:45Z</time>
      </trkpt>
      <trkpt lat="48.58235" lon="5.85619">
        <ele>263</ele>
        <time>2024-01-18T14:33:49Z</time>
      </trkpt>
      <trkpt lat="48.58248" lon="5.85628">
        <ele>263</ele>
        <time>2024-01-18T14:33:51Z</time>
      </trkpt>
      <trkpt lat="48.58264" lon="5.85632">
        <ele>263</ele>
        <time>2024-01-18T14:33:54Z</time>
      </trkpt>
      <trkpt lat="48.58286" lon="5.85627">
        <ele>262</ele>
        <time>2024-01-18T14:33:58Z</time>
      </trkpt>
      <trkpt lat="48.58303" lon="5.85616">
        <ele>262</ele>
        <time>2024-01-18T14:34:01Z</time>
      </trkpt>
      <trkpt lat="48.58357" lon="5.85554">
        <ele>263</ele>
        <time>2024-01-18T14:34:13Z</time>
      </trkpt>
      <trkpt lat="48.58383" lon="5.85534">
        <ele>263</ele>
        <time>2024-01-18T14:34:19Z</time>
      </trkpt>
      <trkpt lat="48.58458" lon="5.85494">
        <ele>262</ele>
        <time>2024-01-18T14:34:33Z</time>
      </trkpt>
      <trkpt lat="48.58516" lon="5.8546">
        <ele>261</ele>
        <time>2024-01-18T14:34:44Z</time>
      </trkpt>
      <trkpt lat="48.58657" lon="5.85351">
        <ele>253</ele>
        <time>2024-01-18T14:35:12Z</time>
      </trkpt>
      <trkpt lat="48.58706" lon="5.85319">
        <ele>252</ele>
        <time>2024-01-18T14:35:21Z</time>
      </trkpt>
      <trkpt lat="48.58785" lon="5.85276">
        <ele>253</ele>
        <time>2024-01-18T14:35:36Z</time>
      </trkpt>
      <trkpt lat="48.58886" lon="5.85228">
        <ele>256</ele>
        <time>2024-01-18T14:35:55Z</time>
      </trkpt>
      <trkpt lat="48.5892" lon="5.85204">
        <ele>258</ele>
        <time>2024-01-18T14:36:02Z</time>
      </trkpt>
      <trkpt lat="48.58935" lon="5.85185">
        <ele>258</ele>
        <time>2024-01-18T14:36:05Z</time>
      </trkpt>
      <trkpt lat="48.58947" lon="5.85162">
        <ele>259</ele>
        <time>2024-01-18T14:36:09Z</time>
      </trkpt>
      <trkpt lat="48.58973" lon="5.85098">
        <ele>259</ele>
        <time>2024-01-18T14:36:18Z</time>
      </trkpt>
      <trkpt lat="48.5901" lon="5.85057">
        <ele>259</ele>
        <time>2024-01-18T14:36:26Z</time>
      </trkpt>
      <trkpt lat="48.59059" lon="5.85012">
        <ele>258</ele>
        <time>2024-01-18T14:36:36Z</time>
      </trkpt>
      <trkpt lat="48.59113" lon="5.8498">
        <ele>258</ele>
        <time>2024-01-18T14:36:46Z</time>
      </trkpt>
      <trkpt lat="48.59134" lon="5.84964">
        <ele>258</ele>
        <time>2024-01-18T14:36:51Z</time>
      </trkpt>
      <trkpt lat="48.59194" lon="5.84901">
        <ele>258</ele>
        <time>2024-01-18T14:37:04Z</time>
      </trkpt>
      <trkpt lat="48.59221" lon="5.84876">
        <ele>258</ele>
        <time>2024-01-18T14:37:09Z</time>
      </trkpt>
      <trkpt lat="48.59251" lon="5.84858">
        <ele>258</ele>
        <time>2024-01-18T14:37:15Z</time>
      </trkpt>
      <trkpt lat="48.59332" lon="5.84822">
        <ele>258</ele>
        <time>2024-01-18T14:37:30Z</time>
      </trkpt>
      <trkpt lat="48.59354" lon="5.84805">
        <ele>258</ele>
        <time>2024-01-18T14:37:34Z</time>
      </trkpt>
      <trkpt lat="48.59405" lon="5.8475">
        <ele>260</ele>
        <time>2024-01-18T14:37:45Z</time>
      </trkpt>
      <trkpt lat="48.59448" lon="5.84719">
        <ele>261</ele>
        <time>2024-01-18T14:37:54Z</time>
      </trkpt>
      <trkpt lat="48.59566" lon="5.8465">
        <ele>261</ele>
        <time>2024-01-18T14:38:16Z</time>
      </trkpt>
      <trkpt lat="48.59582" lon="5.84638">
        <ele>261</ele>
        <time>2024-01-18T14:38:20Z</time>
      </trkpt>
      <trkpt lat="48.59598" lon="5.84622">
        <ele>261</ele>
        <time>2024-01-18T14:38:23Z</time>
      </trkpt>
      <trkpt lat="48.59657" lon="5.84511">
        <ele>261</ele>
        <time>2024-01-18T14:38:40Z</time>
      </trkpt>
      <trkpt lat="48.59737" lon="5.84411">
        <ele>262</ele>
        <time>2024-01-18T14:38:58Z</time>
      </trkpt>
      <trkpt lat="48.59757" lon="5.84381">
        <ele>263</ele>
        <time>2024-01-18T14:39:03Z</time>
      </trkpt>
      <trkpt lat="48.59788" lon="5.84327">
        <ele>264</ele>
        <time>2024-01-18T14:39:12Z</time>
      </trkpt>
      <trkpt lat="48.59811" lon="5.8431">
        <ele>264</ele>
        <time>2024-01-18T14:39:16Z</time>
      </trkpt>
      <trkpt lat="48.59879" lon="5.84281">
        <ele>264</ele>
        <time>2024-01-18T14:39:29Z</time>
      </trkpt>
      <trkpt lat="48.59891" lon="5.84283">
        <ele>264</ele>
        <time>2024-01-18T14:39:31Z</time>
      </trkpt>
      <trkpt lat="48.59897" lon="5.8429">
        <ele>264</ele>
        <time>2024-01-18T14:39:32Z</time>
      </trkpt>
      <trkpt lat="48.59909" lon="5.84329">
        <ele>263</ele>
        <time>2024-01-18T14:39:37Z</time>
      </trkpt>
      <trkpt lat="48.59903" lon="5.84401">
        <ele>262</ele>
        <time>2024-01-18T14:39:46Z</time>
      </trkpt>
      <trkpt lat="48.59903" lon="5.84456">
        <ele>261</ele>
        <time>2024-01-18T14:39:52Z</time>
      </trkpt>
      <trkpt lat="48.5991" lon="5.84538">
        <ele>261</ele>
        <time>2024-01-18T14:40:02Z</time>
      </trkpt>
      <trkpt lat="48.59925" lon="5.84603">
        <ele>259</ele>
        <time>2024-01-18T14:40:10Z</time>
      </trkpt>
      <trkpt lat="48.59989" lon="5.84827">
        <ele>256</ele>
        <time>2024-01-18T14:40:39Z</time>
      </trkpt>
      <trkpt lat="48.60005" lon="5.84871">
        <ele>255</ele>
        <time>2024-01-18T14:40:45Z</time>
      </trkpt>
      <trkpt lat="48.60034" lon="5.84936">
        <ele>253</ele>
        <time>2024-01-18T14:40:54Z</time>
      </trkpt>
      <trkpt lat="48.60145" lon="5.85137">
        <ele>251</ele>
        <time>2024-01-18T14:41:25Z</time>
      </trkpt>
      <trkpt lat="48.60224" lon="5.85267">
        <ele>249</ele>
        <time>2024-01-18T14:41:46Z</time>
      </trkpt>
      <trkpt lat="48.60325" lon="5.85452">
        <ele>245</ele>
        <time>2024-01-18T14:42:14Z</time>
      </trkpt>
      <trkpt lat="48.60362" lon="5.8553">
        <ele>243</ele>
        <time>2024-01-18T14:42:25Z</time>
      </trkpt>
      <trkpt lat="48.60387" lon="5.856">
        <ele>243</ele>
        <time>2024-01-18T14:42:35Z</time>
      </trkpt>
      <trkpt lat="48.60455" lon="5.85817">
        <ele>242</ele>
        <time>2024-01-18T14:43:03Z</time>
      </trkpt>
      <trkpt lat="48.60476" lon="5.85863">
        <ele>242</ele>
        <time>2024-01-18T14:43:09Z</time>
      </trkpt>
      <trkpt lat="48.60499" lon="5.859">
        <ele>242</ele>
        <time>2024-01-18T14:43:15Z</time>
      </trkpt>
      <trkpt lat="48.60515" lon="5.85919">
        <ele>242</ele>
        <time>2024-01-18T14:43:19Z</time>
      </trkpt>
      <trkpt lat="48.61613" lon="5.87037">
        <ele>226</ele>
        <time>2024-01-18T14:47:14Z</time>
      </trkpt>
      <trkpt lat="48.61646" lon="5.87081">
        <ele>224</ele>
        <time>2024-01-18T14:47:22Z</time>
      </trkpt>
      <trkpt lat="48.61832" lon="5.87386">
        <ele>225</ele>
        <time>2024-01-18T14:48:11Z</time>
      </trkpt>
      <trkpt lat="48.61896" lon="5.87482">
        <ele>224</ele>
        <time>2024-01-18T14:48:27Z</time>
      </trkpt>
      <trkpt lat="48.6196" lon="5.8757">
        <ele>224</ele>
        <time>2024-01-18T14:48:43Z</time>
      </trkpt>
      <trkpt lat="48.61967" lon="5.87611">
        <ele>223</ele>
        <time>2024-01-18T14:48:48Z</time>
      </trkpt>
      <trkpt lat="48.61956" lon="5.87634">
        <ele>223</ele>
        <time>2024-01-18T14:48:51Z</time>
      </trkpt>
      <trkpt lat="48.61945" lon="5.87688">
        <ele>223</ele>
        <time>2024-01-18T14:48:58Z</time>
      </trkpt>
      <trkpt lat="48.61943" lon="5.87814">
        <ele>223</ele>
        <time>2024-01-18T14:49:12Z</time>
      </trkpt>
      <trkpt lat="48.61946" lon="5.8783">
        <ele>223</ele>
        <time>2024-01-18T14:49:14Z</time>
      </trkpt>
      <trkpt lat="48.61962" lon="5.87873">
        <ele>223</ele>
        <time>2024-01-18T14:49:20Z</time>
      </trkpt>
      <trkpt lat="48.61994" lon="5.87941">
        <ele>223</ele>
        <time>2024-01-18T14:49:30Z</time>
      </trkpt>
      <trkpt lat="48.6211" lon="5.88174">
        <ele>223</ele>
        <time>2024-01-18T14:50:04Z</time>
      </trkpt>
      <trkpt lat="48.62128" lon="5.88227">
        <ele>224</ele>
        <time>2024-01-18T14:50:11Z</time>
      </trkpt>
      <trkpt lat="48.62185" lon="5.88504">
        <ele>225</ele>
        <time>2024-01-18T14:50:45Z</time>
      </trkpt>
      <trkpt lat="48.62253" lon="5.88759">
        <ele>221</ele>
        <time>2024-01-18T14:51:18Z</time>
      </trkpt>
      <trkpt lat="48.62359" lon="5.89129">
        <ele>221</ele>
        <time>2024-01-18T14:52:05Z</time>
      </trkpt>
      <trkpt lat="48.62359" lon="5.89141">
        <ele>220</ele>
        <time>2024-01-18T14:52:07Z</time>
      </trkpt>
      <trkpt lat="48.62379" lon="5.89141">
        <ele>221</ele>
        <time>2024-01-18T14:52:10Z</time>
      </trkpt>
      <trkpt lat="48.62379" lon="5.89147">
        <ele>221</ele>
        <time>2024-01-18T14:52:11Z</time>
      </trkpt>
      <trkpt lat="48.62423" lon="5.89237">
        <ele>221</ele>
        <time>2024-01-18T14:52:24Z</time>
      </trkpt>
      <trkpt lat="48.62426" lon="5.8925">
        <ele>220</ele>
        <time>2024-01-18T14:52:26Z</time>
      </trkpt>
      <trkpt lat="48.62428" lon="5.89279">
        <ele>219</ele>
        <time>2024-01-18T14:52:29Z</time>
      </trkpt>
      <trkpt lat="48.62425" lon="5.89303">
        <ele>218</ele>
        <time>2024-01-18T14:52:32Z</time>
      </trkpt>
      <trkpt lat="48.62372" lon="5.89447">
        <ele>223</ele>
        <time>2024-01-18T14:52:51Z</time>
      </trkpt>
      <trkpt lat="48.62361" lon="5.8949">
        <ele>225</ele>
        <time>2024-01-18T14:52:57Z</time>
      </trkpt>
      <trkpt lat="48.62344" lon="5.89575">
        <ele>228</ele>
        <time>2024-01-18T14:53:07Z</time>
      </trkpt>
      <trkpt lat="48.62331" lon="5.89602">
        <ele>229</ele>
        <time>2024-01-18T14:53:11Z</time>
      </trkpt>
      <trkpt lat="48.62304" lon="5.89648">
        <ele>230</ele>
        <time>2024-01-18T14:53:18Z</time>
      </trkpt>
      <trkpt lat="48.62295" lon="5.89673">
        <ele>230</ele>
        <time>2024-01-18T14:53:22Z</time>
      </trkpt>
      <trkpt lat="48.62291" lon="5.89704">
        <ele>231</ele>
        <time>2024-01-18T14:53:25Z</time>
      </trkpt>
      <trkpt lat="48.62298" lon="5.89859">
        <ele>233</ele>
        <time>2024-01-18T14:53:44Z</time>
      </trkpt>
      <trkpt lat="48.62299" lon="5.89979">
        <ele>234</ele>
        <time>2024-01-18T14:53:58Z</time>
      </trkpt>
      <trkpt lat="48.62305" lon="5.9003">
        <ele>233</ele>
        <time>2024-01-18T14:54:04Z</time>
      </trkpt>
      <trkpt lat="48.6232" lon="5.90096">
        <ele>231</ele>
        <time>2024-01-18T14:54:12Z</time>
      </trkpt>
      <trkpt lat="48.62323" lon="5.90152">
        <ele>230</ele>
        <time>2024-01-18T14:54:19Z</time>
      </trkpt>
      <trkpt lat="48.62321" lon="5.9017">
        <ele>229</ele>
        <time>2024-01-18T14:54:21Z</time>
      </trkpt>
      <trkpt lat="48.62301" lon="5.90242">
        <ele>228</ele>
        <time>2024-01-18T14:54:30Z</time>
      </trkpt>
      <trkpt lat="48.62301" lon="5.90264">
        <ele>228</ele>
        <time>2024-01-18T14:54:33Z</time>
      </trkpt>
      <trkpt lat="48.62356" lon="5.90371">
        <ele>229</ele>
        <time>2024-01-18T14:54:49Z</time>
      </trkpt>
      <trkpt lat="48.62433" lon="5.90433">
        <ele>227</ele>
        <time>2024-01-18T14:55:04Z</time>
      </trkpt>
      <trkpt lat="48.62633" lon="5.90532">
        <ele>224</ele>
        <time>2024-01-18T14:55:41Z</time>
      </trkpt>
      <trkpt lat="48.62653" lon="5.90546">
        <ele>224</ele>
        <time>2024-01-18T14:55:45Z</time>
      </trkpt>
      <trkpt lat="48.62672" lon="5.90564">
        <ele>223</ele>
        <time>2024-01-18T14:55:49Z</time>
      </trkpt>
      <trkpt lat="48.62688" lon="5.90588">
        <ele>223</ele>
        <time>2024-01-18T14:55:53Z</time>
      </trkpt>
      <trkpt lat="48.62766" lon="5.90736">
        <ele>215</ele>
        <time>2024-01-18T14:56:16Z</time>
      </trkpt>
      <trkpt lat="48.62735" lon="5.90864">
        <ele>215</ele>
        <time>2024-01-18T14:56:32Z</time>
      </trkpt>
      <trkpt lat="48.62745" lon="5.90877">
        <ele>216</ele>
        <time>2024-01-18T14:56:34Z</time>
      </trkpt>
      <trkpt lat="48.62759" lon="5.90861">
        <ele>215</ele>
        <time>2024-01-18T14:56:37Z</time>
      </trkpt>
      <trkpt lat="48.62775" lon="5.90852">
        <ele>215</ele>
        <time>2024-01-18T14:56:40Z</time>
      </trkpt>
      <trkpt lat="48.62789" lon="5.90849">
        <ele>215</ele>
        <time>2024-01-18T14:56:43Z</time>
      </trkpt>
      <trkpt lat="48.63056" lon="5.90873">
        <ele>221</ele>
        <time>2024-01-18T14:57:30Z</time>
      </trkpt>
      <trkpt lat="48.63094" lon="5.90867">
        <ele>223</ele>
        <time>2024-01-18T14:57:37Z</time>
      </trkpt>
      <trkpt lat="48.63105" lon="5.90863">
        <ele>223</ele>
        <time>2024-01-18T14:57:39Z</time>
      </trkpt>
      <trkpt lat="48.63136" lon="5.90844">
        <ele>223</ele>
        <time>2024-01-18T14:57:45Z</time>
      </trkpt>
      <trkpt lat="48.63204" lon="5.90781">
        <ele>218</ele>
        <time>2024-01-18T14:57:59Z</time>
      </trkpt>
      <trkpt lat="48.63225" lon="5.90772">
        <ele>217</ele>
        <time>2024-01-18T14:58:03Z</time>
      </trkpt>
      <trkpt lat="48.63248" lon="5.90772">
        <ele>217</ele>
        <time>2024-01-18T14:58:07Z</time>
      </trkpt>
      <trkpt lat="48.63259" lon="5.90775">
        <ele>217</ele>
        <time>2024-01-18T14:58:09Z</time>
      </trkpt>
      <trkpt lat="48.63281" lon="5.90787">
        <ele>218</ele>
        <time>2024-01-18T14:58:13Z</time>
      </trkpt>
      <trkpt lat="48.63525" lon="5.90942">
        <ele>216</ele>
        <time>2024-01-18T14:59:00Z</time>
      </trkpt>
      <trkpt lat="48.63548" lon="5.90951">
        <ele>216</ele>
        <time>2024-01-18T14:59:05Z</time>
      </trkpt>
      <trkpt lat="48.63564" lon="5.90952">
        <ele>216</ele>
        <time>2024-01-18T14:59:08Z</time>
      </trkpt>
      <trkpt lat="48.63586" lon="5.90946">
        <ele>216</ele>
        <time>2024-01-18T14:59:12Z</time>
      </trkpt>
      <trkpt lat="48.63613" lon="5.90928">
        <ele>218</ele>
        <time>2024-01-18T14:59:17Z</time>
      </trkpt>
      <trkpt lat="48.63678" lon="5.90872">
        <ele>219</ele>
        <time>2024-01-18T14:59:30Z</time>
      </trkpt>
      <trkpt lat="48.63697" lon="5.90846">
        <ele>220</ele>
        <time>2024-01-18T14:59:35Z</time>
      </trkpt>
      <trkpt lat="48.63715" lon="5.90811">
        <ele>219</ele>
        <time>2024-01-18T14:59:40Z</time>
      </trkpt>
      <trkpt lat="48.63791" lon="5.90618">
        <ele>214</ele>
        <time>2024-01-18T15:00:06Z</time>
      </trkpt>
      <trkpt lat="48.63799" lon="5.90602">
        <ele>214</ele>
        <time>2024-01-18T15:00:09Z</time>
      </trkpt>
      <trkpt lat="48.63815" lon="5.90583">
        <ele>214</ele>
        <time>2024-01-18T15:00:12Z</time>
      </trkpt>
      <trkpt lat="48.63825" lon="5.90574">
        <ele>214</ele>
        <time>2024-01-18T15:00:14Z</time>
      </trkpt>
      <trkpt lat="48.6385" lon="5.90565">
        <ele>214</ele>
        <time>2024-01-18T15:00:19Z</time>
      </trkpt>
      <trkpt lat="48.64144" lon="5.90532">
        <ele>210</ele>
        <time>2024-01-18T15:01:11Z</time>
      </trkpt>
      <trkpt lat="48.64183" lon="5.90526">
        <ele>210</ele>
        <time>2024-01-18T15:01:18Z</time>
      </trkpt>
      <trkpt lat="48.64203" lon="5.90517">
        <ele>210</ele>
        <time>2024-01-18T15:01:22Z</time>
      </trkpt>
      <trkpt lat="48.64224" lon="5.90497">
        <ele>210</ele>
        <time>2024-01-18T15:01:26Z</time>
      </trkpt>
      <trkpt lat="48.6424" lon="5.90476">
        <ele>210</ele>
        <time>2024-01-18T15:01:30Z</time>
      </trkpt>
      <trkpt lat="48.64542" lon="5.90062">
        <ele>208</ele>
        <time>2024-01-18T15:02:43Z</time>
      </trkpt>
      <trkpt lat="48.6455" lon="5.90095">
        <ele>208</ele>
        <time>2024-01-18T15:02:47Z</time>
      </trkpt>
      <trkpt lat="48.64552" lon="5.90118">
        <ele>209</ele>
        <time>2024-01-18T15:02:50Z</time>
      </trkpt>
      <trkpt lat="48.6455" lon="5.90174">
        <ele>209</ele>
        <time>2024-01-18T15:02:56Z</time>
      </trkpt>
      <trkpt lat="48.64552" lon="5.90186">
        <ele>209</ele>
        <time>2024-01-18T15:02:58Z</time>
      </trkpt>
      <trkpt lat="48.64557" lon="5.90198">
        <ele>209</ele>
        <time>2024-01-18T15:02:59Z</time>
      </trkpt>
      <trkpt lat="48.64575" lon="5.90217">
        <ele>207</ele>
        <time>2024-01-18T15:03:03Z</time>
      </trkpt>
      <trkpt lat="48.64595" lon="5.90257">
        <ele>205</ele>
        <time>2024-01-18T15:03:09Z</time>
      </trkpt>
      <trkpt lat="48.64602" lon="5.90282">
        <ele>206</ele>
        <time>2024-01-18T15:03:12Z</time>
      </trkpt>
      <trkpt lat="48.64608" lon="5.90329">
        <ele>206</ele>
        <time>2024-01-18T15:03:18Z</time>
      </trkpt>
      <trkpt lat="48.64611" lon="5.90398">
        <ele>208</ele>
        <time>2024-01-18T15:03:26Z</time>
      </trkpt>
      <trkpt lat="48.6461" lon="5.9052">
        <ele>206</ele>
        <time>2024-01-18T15:03:40Z</time>
      </trkpt>
      <trkpt lat="48.64604" lon="5.90662">
        <ele>205</ele>
        <time>2024-01-18T15:03:57Z</time>
      </trkpt>
      <trkpt lat="48.64597" lon="5.90726">
        <ele>206</ele>
        <time>2024-01-18T15:04:05Z</time>
      </trkpt>
      <trkpt lat="48.64584" lon="5.90789">
        <ele>206</ele>
        <time>2024-01-18T15:04:12Z</time>
      </trkpt>
      <trkpt lat="48.64544" lon="5.90902">
        <ele>206</ele>
        <time>2024-01-18T15:04:28Z</time>
      </trkpt>
      <trkpt lat="48.6451" lon="5.91083">
        <ele>207</ele>
        <time>2024-01-18T15:04:50Z</time>
      </trkpt>
      <trkpt lat="48.64476" lon="5.91224">
        <ele>206</ele>
        <time>2024-01-18T15:05:07Z</time>
      </trkpt>
      <trkpt lat="48.64438" lon="5.91427">
        <ele>206</ele>
        <time>2024-01-18T15:05:32Z</time>
      </trkpt>
      <trkpt lat="48.64426" lon="5.91472">
        <ele>207</ele>
        <time>2024-01-18T15:05:38Z</time>
      </trkpt>
      <trkpt lat="48.64395" lon="5.91565">
        <ele>207</ele>
        <time>2024-01-18T15:05:50Z</time>
      </trkpt>
      <trkpt lat="48.64355" lon="5.91671">
        <ele>207</ele>
        <time>2024-01-18T15:06:04Z</time>
      </trkpt>
      <trkpt lat="48.64251" lon="5.92021">
        <ele>218</ele>
        <time>2024-01-18T15:06:50Z</time>
      </trkpt>
      <trkpt lat="48.64182" lon="5.92286">
        <ele>215</ele>
        <time>2024-01-18T15:07:23Z</time>
      </trkpt>
      <trkpt lat="48.64179" lon="5.92314">
        <ele>213</ele>
        <time>2024-01-18T15:07:26Z</time>
      </trkpt>
      <trkpt lat="48.64182" lon="5.92358">
        <ele>213</ele>
        <time>2024-01-18T15:07:32Z</time>
      </trkpt>
      <trkpt lat="48.64212" lon="5.92512">
        <ele>216</ele>
        <time>2024-01-18T15:07:50Z</time>
      </trkpt>
      <trkpt lat="48.64239" lon="5.92694">
        <ele>214</ele>
        <time>2024-01-18T15:08:12Z</time>
      </trkpt>
      <trkpt lat="48.64244" lon="5.92712">
        <ele>212</ele>
        <time>2024-01-18T15:08:15Z</time>
      </trkpt>
      <trkpt lat="48.64316" lon="5.92859">
        <ele>209</ele>
        <time>2024-01-18T15:08:36Z</time>
      </trkpt>
      <trkpt lat="48.64326" lon="5.92892">
        <ele>208</ele>
        <time>2024-01-18T15:08:40Z</time>
      </trkpt>
      <trkpt lat="48.64336" lon="5.92962">
        <ele>207</ele>
        <time>2024-01-18T15:08:49Z</time>
      </trkpt>
      <trkpt lat="48.64336" lon="5.93">
        <ele>207</ele>
        <time>2024-01-18T15:08:53Z</time>
      </trkpt>
      <trkpt lat="48.64331" lon="5.93078">
        <ele>208</ele>
        <time>2024-01-18T15:09:03Z</time>
      </trkpt>
      <trkpt lat="48.64318" lon="5.93177">
        <ele>211</ele>
        <time>2024-01-18T15:09:14Z</time>
      </trkpt>
      <trkpt lat="48.64317" lon="5.93324">
        <ele>212</ele>
        <time>2024-01-18T15:09:32Z</time>
      </trkpt>
      <trkpt lat="48.64321" lon="5.93361">
        <ele>212</ele>
        <time>2024-01-18T15:09:36Z</time>
      </trkpt>
      <trkpt lat="48.64345" lon="5.93464">
        <ele>214</ele>
        <time>2024-01-18T15:09:49Z</time>
      </trkpt>
      <trkpt lat="48.64347" lon="5.93482">
        <ele>215</ele>
        <time>2024-01-18T15:09:51Z</time>
      </trkpt>
      <trkpt lat="48.64341" lon="5.93718">
        <ele>213</ele>
        <time>2024-01-18T15:10:19Z</time>
      </trkpt>
      <trkpt lat="48.64332" lon="5.93779">
        <ele>213</ele>
        <time>2024-01-18T15:10:26Z</time>
      </trkpt>
      <trkpt lat="48.64325" lon="5.93944">
        <ele>211</ele>
        <time>2024-01-18T15:10:46Z</time>
      </trkpt>
      <trkpt lat="48.64315" lon="5.94">
        <ele>214</ele>
        <time>2024-01-18T15:10:52Z</time>
      </trkpt>
      <trkpt lat="48.64309" lon="5.94053">
        <ele>212</ele>
        <time>2024-01-18T15:10:59Z</time>
      </trkpt>
      <trkpt lat="48.64292" lon="5.94281">
        <ele>211</ele>
        <time>2024-01-18T15:11:26Z</time>
      </trkpt>
      <trkpt lat="48.64294" lon="5.94282">
        <ele>211</ele>
        <time>2024-01-18T15:11:26Z</time>
      </trkpt>
      <trkpt lat="48.64291" lon="5.94472">
        <ele>211</ele>
        <time>2024-01-18T15:11:48Z</time>
      </trkpt>
      <trkpt lat="48.64296" lon="5.94773">
        <ele>222</ele>
        <time>2024-01-18T15:12:24Z</time>
      </trkpt>
      <trkpt lat="48.64298" lon="5.94847">
        <ele>222</ele>
        <time>2024-01-18T15:12:33Z</time>
      </trkpt>
      <trkpt lat="48.64312" lon="5.95037">
        <ele>221</ele>
        <time>2024-01-18T15:12:55Z</time>
      </trkpt>
      <trkpt lat="48.64363" lon="5.95476">
        <ele>223</ele>
        <time>2024-01-18T15:13:47Z</time>
      </trkpt>
      <trkpt lat="48.64406" lon="5.95805">
        <ele>218</ele>
        <time>2024-01-18T15:14:27Z</time>
      </trkpt>
      <trkpt lat="48.6442" lon="5.95889">
        <ele>218</ele>
        <time>2024-01-18T15:14:37Z</time>
      </trkpt>
      <trkpt lat="48.64478" lon="5.9611">
        <ele>218</ele>
        <time>2024-01-18T15:15:05Z</time>
      </trkpt>
      <trkpt lat="48.64514" lon="5.96257">
        <ele>219</ele>
        <time>2024-01-18T15:15:23Z</time>
      </trkpt>
      <trkpt lat="48.64562" lon="5.9642">
        <ele>216</ele>
        <time>2024-01-18T15:15:44Z</time>
      </trkpt>
      <trkpt lat="48.64614" lon="5.9658">
        <ele>219</ele>
        <time>2024-01-18T15:16:05Z</time>
      </trkpt>
      <trkpt lat="48.64664" lon="5.96668">
        <ele>217</ele>
        <time>2024-01-18T15:16:19Z</time>
      </trkpt>
      <trkpt lat="48.64677" lon="5.96703">
        <ele>218</ele>
        <time>2024-01-18T15:16:24Z</time>
      </trkpt>
      <trkpt lat="48.64748" lon="5.96945">
        <ele>215</ele>
        <time>2024-01-18T15:16:55Z</time>
      </trkpt>
      <trkpt lat="48.64875" lon="5.97395">
        <ele>219</ele>
        <time>2024-01-18T15:17:52Z</time>
      </trkpt>
      <trkpt lat="48.64879" lon="5.97403">
        <ele>218</ele>
        <time>2024-01-18T15:17:54Z</time>
      </trkpt>
      <trkpt lat="48.64889" lon="5.97413">
        <ele>217</ele>
        <time>2024-01-18T15:17:56Z</time>
      </trkpt>
      <trkpt lat="48.64894" lon="5.97414">
        <ele>216</ele>
        <time>2024-01-18T15:17:57Z</time>
      </trkpt>
      <trkpt lat="48.649" lon="5.97413">
        <ele>215</ele>
        <time>2024-01-18T15:17:58Z</time>
      </trkpt>
      <trkpt lat="48.64924" lon="5.974">
        <ele>211</ele>
        <time>2024-01-18T15:18:02Z</time>
      </trkpt>
      <trkpt lat="48.64951" lon="5.97383">
        <ele>211</ele>
        <time>2024-01-18T15:18:07Z</time>
      </trkpt>
      <trkpt lat="48.64959" lon="5.97381">
        <ele>210</ele>
        <time>2024-01-18T15:18:09Z</time>
      </trkpt>
      <trkpt lat="48.64968" lon="5.97384">
        <ele>210</ele>
        <time>2024-01-18T15:18:11Z</time>
      </trkpt>
      <trkpt lat="48.64977" lon="5.97395">
        <ele>210</ele>
        <time>2024-01-18T15:18:13Z</time>
      </trkpt>
      <trkpt lat="48.6505" lon="5.97669">
        <ele>210</ele>
        <time>2024-01-18T15:18:47Z</time>
      </trkpt>
      <trkpt lat="48.65066" lon="5.97793">
        <ele>211</ele>
        <time>2024-01-18T15:19:02Z</time>
      </trkpt>
      <trkpt lat="48.6507" lon="5.97814">
        <ele>211</ele>
        <time>2024-01-18T15:19:05Z</time>
      </trkpt>
      <trkpt lat="48.65076" lon="5.97822">
        <ele>211</ele>
        <time>2024-01-18T15:19:06Z</time>
      </trkpt>
      <trkpt lat="48.65085" lon="5.97828">
        <ele>211</ele>
        <time>2024-01-18T15:19:08Z</time>
      </trkpt>
      <trkpt lat="48.65096" lon="5.97828">
        <ele>211</ele>
        <time>2024-01-18T15:19:10Z</time>
      </trkpt>
      <trkpt lat="48.65195" lon="5.97789">
        <ele>215</ele>
        <time>2024-01-18T15:19:28Z</time>
      </trkpt>
      <trkpt lat="48.65203" lon="5.97791">
        <ele>216</ele>
        <time>2024-01-18T15:19:30Z</time>
      </trkpt>
      <trkpt lat="48.65209" lon="5.97796">
        <ele>217</ele>
        <time>2024-01-18T15:19:31Z</time>
      </trkpt>
      <trkpt lat="48.65218" lon="5.97814">
        <ele>219</ele>
        <time>2024-01-18T15:19:33Z</time>
      </trkpt>
      <trkpt lat="48.65252" lon="5.98006">
        <ele>220</ele>
        <time>2024-01-18T15:19:57Z</time>
      </trkpt>
      <trkpt lat="48.65261" lon="5.98092">
        <ele>222</ele>
        <time>2024-01-18T15:20:07Z</time>
      </trkpt>
      <trkpt lat="48.65268" lon="5.98261">
        <ele>222</ele>
        <time>2024-01-18T15:20:27Z</time>
      </trkpt>
      <trkpt lat="48.65259" lon="5.98613">
        <ele>217</ele>
        <time>2024-01-18T15:21:08Z</time>
      </trkpt>
      <trkpt lat="48.65252" lon="5.98726">
        <ele>214</ele>
        <time>2024-01-18T15:21:22Z</time>
      </trkpt>
      <trkpt lat="48.65254" lon="5.98746">
        <ele>214</ele>
        <time>2024-01-18T15:21:24Z</time>
      </trkpt>
      <trkpt lat="48.6526" lon="5.98761">
        <ele>215</ele>
        <time>2024-01-18T15:21:26Z</time>
      </trkpt>
      <trkpt lat="48.65258" lon="5.98914">
        <ele>217</ele>
        <time>2024-01-18T15:21:44Z</time>
      </trkpt>
      <trkpt lat="48.65264" lon="5.99031">
        <ele>217</ele>
        <time>2024-01-18T15:21:58Z</time>
      </trkpt>
      <trkpt lat="48.65291" lon="5.99224">
        <ele>220</ele>
        <time>2024-01-18T15:22:21Z</time>
      </trkpt>
    </trkseg>
  </trk>
</gpx>